<?xml version="1.0" encoding="UTF-8" standalone="no" ?>
<gpx xmlns="http://www.topografix.com/GPX/1/1" xmlns:xsi="http://www.w3.org/2001/XMLSchema-instance" xsi:schemaLocation="http://www.topografix.com/GPX/1/1 http://www.topografix.com/GPX/1/1/gpx.xsd" version="1.1" creator="VisuGPX - https://www.visugpx.com">
  <metadata>
    <name>Castelculier sortie scolaire 2025</name>
  </metadata>
  <trk>
    <name><![CDATA[Castelculier sortie scolaire 2024]]></name>
    <extensions>
      <line xmlns="http://www.topografix.com/GPX/gpx_style/0/2">
        <color>0000FF</color>
        <width>4</width>
      </line>
    </extensions>
    <trkseg>
      <trkpt lat="44.17626" lon="0.69452">
        <ele>57</ele>
        <time>2024-06-11T09:24:43+02:00</time>
      </trkpt>
      <trkpt lat="44.17628" lon="0.6946">
        <ele>57</ele>
        <time>2024-06-11T09:24:48+02:00</time>
      </trkpt>
      <trkpt lat="44.17618" lon="0.69461">
        <ele>57</ele>
        <time>2024-06-11T09:25:03+02:00</time>
      </trkpt>
      <trkpt lat="44.1761" lon="0.69469">
        <ele>57</ele>
        <time>2024-06-11T09:25:08+02:00</time>
      </trkpt>
      <trkpt lat="44.17601" lon="0.69472">
        <ele>57</ele>
        <time>2024-06-11T09:25:18+02:00</time>
      </trkpt>
      <trkpt lat="44.17592" lon="0.69479">
        <ele>57</ele>
        <time>2024-06-11T09:25:28+02:00</time>
      </trkpt>
      <trkpt lat="44.17579" lon="0.69486">
        <ele>57</ele>
        <time>2024-06-11T09:25:43+02:00</time>
      </trkpt>
      <trkpt lat="44.1757" lon="0.6949">
        <ele>57</ele>
        <time>2024-06-11T09:25:53+02:00</time>
      </trkpt>
      <trkpt lat="44.17561" lon="0.69496">
        <ele>57</ele>
        <time>2024-06-11T09:26:13+02:00</time>
      </trkpt>
      <trkpt lat="44.17552" lon="0.69502">
        <ele>56.9</ele>
        <time>2024-06-11T09:26:23+02:00</time>
      </trkpt>
      <trkpt lat="44.17542" lon="0.69506">
        <ele>56.6</ele>
        <time>2024-06-11T09:26:33+02:00</time>
      </trkpt>
      <trkpt lat="44.17535" lon="0.69519">
        <ele>56.8</ele>
        <time>2024-06-11T09:26:48+02:00</time>
      </trkpt>
      <trkpt lat="44.17539" lon="0.69539">
        <ele>56.5</ele>
        <time>2024-06-11T09:27:03+02:00</time>
      </trkpt>
      <trkpt lat="44.17541" lon="0.69555">
        <ele>55.9</ele>
        <time>2024-06-11T09:27:13+02:00</time>
      </trkpt>
      <trkpt lat="44.17543" lon="0.6957">
        <ele>55.6</ele>
        <time>2024-06-11T09:27:23+02:00</time>
      </trkpt>
      <trkpt lat="44.17546" lon="0.69585">
        <ele>55.3</ele>
        <time>2024-06-11T09:27:33+02:00</time>
      </trkpt>
      <trkpt lat="44.17548" lon="0.696">
        <ele>55</ele>
        <time>2024-06-11T09:27:43+02:00</time>
      </trkpt>
      <trkpt lat="44.1755" lon="0.69613">
        <ele>54.7</ele>
        <time>2024-06-11T09:27:53+02:00</time>
      </trkpt>
      <trkpt lat="44.17554" lon="0.69629">
        <ele>54.3</ele>
        <time>2024-06-11T09:28:03+02:00</time>
      </trkpt>
      <trkpt lat="44.17557" lon="0.69644">
        <ele>54</ele>
        <time>2024-06-11T09:28:13+02:00</time>
      </trkpt>
      <trkpt lat="44.17558" lon="0.69659">
        <ele>54.1</ele>
        <time>2024-06-11T09:28:23+02:00</time>
      </trkpt>
      <trkpt lat="44.1756" lon="0.69676">
        <ele>54.2</ele>
        <time>2024-06-11T09:28:33+02:00</time>
      </trkpt>
      <trkpt lat="44.17562" lon="0.69692">
        <ele>54.2</ele>
        <time>2024-06-11T09:28:43+02:00</time>
      </trkpt>
      <trkpt lat="44.17563" lon="0.69706">
        <ele>54.2</ele>
        <time>2024-06-11T09:28:53+02:00</time>
      </trkpt>
      <trkpt lat="44.17563" lon="0.69722">
        <ele>54</ele>
        <time>2024-06-11T09:29:03+02:00</time>
      </trkpt>
      <trkpt lat="44.17565" lon="0.69739">
        <ele>54</ele>
        <time>2024-06-11T09:29:13+02:00</time>
      </trkpt>
      <trkpt lat="44.17566" lon="0.69752">
        <ele>54.1</ele>
        <time>2024-06-11T09:29:22+02:00</time>
      </trkpt>
      <trkpt lat="44.17566" lon="0.69767">
        <ele>54.6</ele>
        <time>2024-06-11T09:29:32+02:00</time>
      </trkpt>
      <trkpt lat="44.17566" lon="0.69781">
        <ele>55</ele>
        <time>2024-06-11T09:29:41+02:00</time>
      </trkpt>
      <trkpt lat="44.17566" lon="0.69796">
        <ele>55.2</ele>
        <time>2024-06-11T09:29:51+02:00</time>
      </trkpt>
      <trkpt lat="44.17564" lon="0.69809">
        <ele>55.3</ele>
        <time>2024-06-11T09:30:01+02:00</time>
      </trkpt>
      <trkpt lat="44.17564" lon="0.69824">
        <ele>55.5</ele>
        <time>2024-06-11T09:30:11+02:00</time>
      </trkpt>
      <trkpt lat="44.17565" lon="0.69839">
        <ele>55.7</ele>
        <time>2024-06-11T09:30:21+02:00</time>
      </trkpt>
      <trkpt lat="44.17565" lon="0.69856">
        <ele>56</ele>
        <time>2024-06-11T09:30:31+02:00</time>
      </trkpt>
      <trkpt lat="44.17566" lon="0.69871">
        <ele>56.3</ele>
        <time>2024-06-11T09:30:41+02:00</time>
      </trkpt>
      <trkpt lat="44.1757" lon="0.69888">
        <ele>57</ele>
        <time>2024-06-11T09:30:51+02:00</time>
      </trkpt>
      <trkpt lat="44.17573" lon="0.69905">
        <ele>56.4</ele>
        <time>2024-06-11T09:31:01+02:00</time>
      </trkpt>
      <trkpt lat="44.17577" lon="0.69919">
        <ele>55.7</ele>
        <time>2024-06-11T09:31:11+02:00</time>
      </trkpt>
      <trkpt lat="44.17582" lon="0.69932">
        <ele>55.4</ele>
        <time>2024-06-11T09:31:21+02:00</time>
      </trkpt>
      <trkpt lat="44.17582" lon="0.69948">
        <ele>55</ele>
        <time>2024-06-11T09:31:31+02:00</time>
      </trkpt>
      <trkpt lat="44.1758" lon="0.69965">
        <ele>55</ele>
        <time>2024-06-11T09:31:41+02:00</time>
      </trkpt>
      <trkpt lat="44.17579" lon="0.69981">
        <ele>54.7</ele>
        <time>2024-06-11T09:31:51+02:00</time>
      </trkpt>
      <trkpt lat="44.17578" lon="0.69994">
        <ele>54.2</ele>
        <time>2024-06-11T09:32:01+02:00</time>
      </trkpt>
      <trkpt lat="44.17579" lon="0.7001">
        <ele>54.3</ele>
        <time>2024-06-11T09:32:11+02:00</time>
      </trkpt>
      <trkpt lat="44.17577" lon="0.70027">
        <ele>54.7</ele>
        <time>2024-06-11T09:32:21+02:00</time>
      </trkpt>
      <trkpt lat="44.17573" lon="0.70042">
        <ele>54.3</ele>
        <time>2024-06-11T09:32:31+02:00</time>
      </trkpt>
      <trkpt lat="44.1757" lon="0.70055">
        <ele>54</ele>
        <time>2024-06-11T09:32:41+02:00</time>
      </trkpt>
      <trkpt lat="44.17566" lon="0.70069">
        <ele>54.3</ele>
        <time>2024-06-11T09:32:51+02:00</time>
      </trkpt>
      <trkpt lat="44.17562" lon="0.70081">
        <ele>54.7</ele>
        <time>2024-06-11T09:33:01+02:00</time>
      </trkpt>
      <trkpt lat="44.17575" lon="0.70084">
        <ele>54.3</ele>
        <time>2024-06-11T09:33:41+02:00</time>
      </trkpt>
      <trkpt lat="44.17588" lon="0.70078">
        <ele>54.1</ele>
        <time>2024-06-11T09:33:51+02:00</time>
      </trkpt>
      <trkpt lat="44.17597" lon="0.70067">
        <ele>54.5</ele>
        <time>2024-06-11T09:34:01+02:00</time>
      </trkpt>
      <trkpt lat="44.17606" lon="0.70057">
        <ele>54.8</ele>
        <time>2024-06-11T09:34:10+02:00</time>
      </trkpt>
      <trkpt lat="44.17616" lon="0.70046">
        <ele>55.4</ele>
        <time>2024-06-11T09:34:34+02:00</time>
      </trkpt>
      <trkpt lat="44.17622" lon="0.70033">
        <ele>55.6</ele>
        <time>2024-06-11T09:34:45+02:00</time>
      </trkpt>
      <trkpt lat="44.17632" lon="0.70029">
        <ele>55.3</ele>
        <time>2024-06-11T09:34:55+02:00</time>
      </trkpt>
      <trkpt lat="44.17642" lon="0.70029">
        <ele>55.3</ele>
        <time>2024-06-11T09:35:05+02:00</time>
      </trkpt>
      <trkpt lat="44.17649" lon="0.70038">
        <ele>56</ele>
        <time>2024-06-11T09:35:15+02:00</time>
      </trkpt>
      <trkpt lat="44.17659" lon="0.70045">
        <ele>56.6</ele>
        <time>2024-06-11T09:35:25+02:00</time>
      </trkpt>
      <trkpt lat="44.17671" lon="0.70052">
        <ele>57</ele>
        <time>2024-06-11T09:35:35+02:00</time>
      </trkpt>
      <trkpt lat="44.17682" lon="0.70058">
        <ele>57</ele>
        <time>2024-06-11T09:35:45+02:00</time>
      </trkpt>
      <trkpt lat="44.17695" lon="0.70064">
        <ele>57</ele>
        <time>2024-06-11T09:36:00+02:00</time>
      </trkpt>
      <trkpt lat="44.17708" lon="0.70067">
        <ele>57</ele>
        <time>2024-06-11T09:36:10+02:00</time>
      </trkpt>
      <trkpt lat="44.1772" lon="0.70069">
        <ele>57</ele>
        <time>2024-06-11T09:36:20+02:00</time>
      </trkpt>
      <trkpt lat="44.17731" lon="0.70068">
        <ele>57.1</ele>
        <time>2024-06-11T09:36:30+02:00</time>
      </trkpt>
      <trkpt lat="44.17741" lon="0.70068">
        <ele>57.3</ele>
        <time>2024-06-11T09:36:40+02:00</time>
      </trkpt>
      <trkpt lat="44.17751" lon="0.70072">
        <ele>57.6</ele>
        <time>2024-06-11T09:36:50+02:00</time>
      </trkpt>
      <trkpt lat="44.17764" lon="0.7007">
        <ele>57.8</ele>
        <time>2024-06-11T09:37:00+02:00</time>
      </trkpt>
      <trkpt lat="44.17772" lon="0.70064">
        <ele>57.9</ele>
        <time>2024-06-11T09:37:10+02:00</time>
      </trkpt>
      <trkpt lat="44.17784" lon="0.70058">
        <ele>57.8</ele>
        <time>2024-06-11T09:37:25+02:00</time>
      </trkpt>
      <trkpt lat="44.17796" lon="0.70055">
        <ele>57.4</ele>
        <time>2024-06-11T09:37:35+02:00</time>
      </trkpt>
      <trkpt lat="44.17805" lon="0.70056">
        <ele>57.1</ele>
        <time>2024-06-11T09:37:45+02:00</time>
      </trkpt>
      <trkpt lat="44.17815" lon="0.70059">
        <ele>57</ele>
        <time>2024-06-11T09:37:55+02:00</time>
      </trkpt>
      <trkpt lat="44.17826" lon="0.70062">
        <ele>56.9</ele>
        <time>2024-06-11T09:38:05+02:00</time>
      </trkpt>
      <trkpt lat="44.17839" lon="0.70065">
        <ele>57.1</ele>
        <time>2024-06-11T09:38:15+02:00</time>
      </trkpt>
      <trkpt lat="44.17849" lon="0.70072">
        <ele>58</ele>
        <time>2024-06-11T09:38:30+02:00</time>
      </trkpt>
      <trkpt lat="44.17859" lon="0.70073">
        <ele>58.3</ele>
        <time>2024-06-11T09:38:40+02:00</time>
      </trkpt>
      <trkpt lat="44.17872" lon="0.70075">
        <ele>58.8</ele>
        <time>2024-06-11T09:38:49+02:00</time>
      </trkpt>
      <trkpt lat="44.1788" lon="0.70067">
        <ele>58.5</ele>
        <time>2024-06-11T09:38:59+02:00</time>
      </trkpt>
      <trkpt lat="44.17892" lon="0.70056">
        <ele>58.1</ele>
        <time>2024-06-11T09:39:13+02:00</time>
      </trkpt>
      <trkpt lat="44.17901" lon="0.70047">
        <ele>58</ele>
        <time>2024-06-11T09:39:23+02:00</time>
      </trkpt>
      <trkpt lat="44.17913" lon="0.70046">
        <ele>58.2</ele>
        <time>2024-06-11T09:39:38+02:00</time>
      </trkpt>
      <trkpt lat="44.17922" lon="0.70042">
        <ele>58.1</ele>
        <time>2024-06-11T09:39:48+02:00</time>
      </trkpt>
      <trkpt lat="44.17933" lon="0.70039">
        <ele>58.1</ele>
        <time>2024-06-11T09:39:58+02:00</time>
      </trkpt>
      <trkpt lat="44.17942" lon="0.7004">
        <ele>58.4</ele>
        <time>2024-06-11T09:40:08+02:00</time>
      </trkpt>
      <trkpt lat="44.17955" lon="0.7005">
        <ele>58.7</ele>
        <time>2024-06-11T09:40:23+02:00</time>
      </trkpt>
      <trkpt lat="44.17968" lon="0.7005">
        <ele>58.6</ele>
        <time>2024-06-11T09:40:48+02:00</time>
      </trkpt>
      <trkpt lat="44.17974" lon="0.7006">
        <ele>59</ele>
        <time>2024-06-11T09:45:28+02:00</time>
      </trkpt>
      <trkpt lat="44.17984" lon="0.70058">
        <ele>58.6</ele>
        <time>2024-06-11T09:46:06+02:00</time>
      </trkpt>
      <trkpt lat="44.17999" lon="0.70057">
        <ele>58.1</ele>
        <time>2024-06-11T09:46:16+02:00</time>
      </trkpt>
      <trkpt lat="44.1801" lon="0.70063">
        <ele>57.9</ele>
        <time>2024-06-11T09:46:25+02:00</time>
      </trkpt>
      <trkpt lat="44.18019" lon="0.70066">
        <ele>57.7</ele>
        <time>2024-06-11T09:46:35+02:00</time>
      </trkpt>
      <trkpt lat="44.18031" lon="0.70067">
        <ele>57.5</ele>
        <time>2024-06-11T09:46:44+02:00</time>
      </trkpt>
      <trkpt lat="44.18043" lon="0.70067">
        <ele>57.7</ele>
        <time>2024-06-11T09:46:58+02:00</time>
      </trkpt>
      <trkpt lat="44.18049" lon="0.70069">
        <ele>57.9</ele>
        <time>2024-06-11T09:47:08+02:00</time>
      </trkpt>
      <trkpt lat="44.18061" lon="0.7008">
        <ele>58</ele>
        <time>2024-06-11T09:47:12+02:00</time>
      </trkpt>
      <trkpt lat="44.18072" lon="0.70081">
        <ele>58</ele>
        <time>2024-06-11T09:47:22+02:00</time>
      </trkpt>
      <trkpt lat="44.18082" lon="0.70086">
        <ele>58.1</ele>
        <time>2024-06-11T09:47:31+02:00</time>
      </trkpt>
      <trkpt lat="44.18093" lon="0.70088">
        <ele>58.5</ele>
        <time>2024-06-11T09:47:41+02:00</time>
      </trkpt>
      <trkpt lat="44.18105" lon="0.70095">
        <ele>59.2</ele>
        <time>2024-06-11T09:47:50+02:00</time>
      </trkpt>
      <trkpt lat="44.18114" lon="0.70101">
        <ele>59.5</ele>
        <time>2024-06-11T09:48:00+02:00</time>
      </trkpt>
      <trkpt lat="44.18123" lon="0.7011">
        <ele>59.5</ele>
        <time>2024-06-11T09:48:10+02:00</time>
      </trkpt>
      <trkpt lat="44.18137" lon="0.70107">
        <ele>58.9</ele>
        <time>2024-06-11T09:48:20+02:00</time>
      </trkpt>
      <trkpt lat="44.1815" lon="0.70107">
        <ele>58.9</ele>
        <time>2024-06-11T09:48:30+02:00</time>
      </trkpt>
      <trkpt lat="44.1816" lon="0.70106">
        <ele>58.8</ele>
        <time>2024-06-11T09:48:40+02:00</time>
      </trkpt>
      <trkpt lat="44.18192" lon="0.70112">
        <ele>60</ele>
        <time>2024-06-11T09:49:10+02:00</time>
      </trkpt>
      <trkpt lat="44.18203" lon="0.70112">
        <ele>60</ele>
        <time>2024-06-11T09:49:20+02:00</time>
      </trkpt>
      <trkpt lat="44.18214" lon="0.70113">
        <ele>60.2</ele>
        <time>2024-06-11T09:49:30+02:00</time>
      </trkpt>
      <trkpt lat="44.18225" lon="0.70119">
        <ele>60.4</ele>
        <time>2024-06-11T09:49:40+02:00</time>
      </trkpt>
      <trkpt lat="44.18236" lon="0.70122">
        <ele>60.2</ele>
        <time>2024-06-11T09:49:50+02:00</time>
      </trkpt>
      <trkpt lat="44.18247" lon="0.70123">
        <ele>59.9</ele>
        <time>2024-06-11T09:50:00+02:00</time>
      </trkpt>
      <trkpt lat="44.1826" lon="0.70125">
        <ele>59.8</ele>
        <time>2024-06-11T09:50:10+02:00</time>
      </trkpt>
      <trkpt lat="44.1827" lon="0.70127">
        <ele>59.8</ele>
        <time>2024-06-11T09:50:20+02:00</time>
      </trkpt>
      <trkpt lat="44.18278" lon="0.70136">
        <ele>59.9</ele>
        <time>2024-06-11T09:50:30+02:00</time>
      </trkpt>
      <trkpt lat="44.18283" lon="0.70151">
        <ele>60.4</ele>
        <time>2024-06-11T09:50:40+02:00</time>
      </trkpt>
      <trkpt lat="44.18287" lon="0.70168">
        <ele>60.8</ele>
        <time>2024-06-11T09:50:55+02:00</time>
      </trkpt>
      <trkpt lat="44.18287" lon="0.70182">
        <ele>61.2</ele>
        <time>2024-06-11T09:51:05+02:00</time>
      </trkpt>
      <trkpt lat="44.18289" lon="0.70199">
        <ele>61.4</ele>
        <time>2024-06-11T09:51:15+02:00</time>
      </trkpt>
      <trkpt lat="44.18292" lon="0.70217">
        <ele>61</ele>
        <time>2024-06-11T09:51:30+02:00</time>
      </trkpt>
      <trkpt lat="44.18296" lon="0.7023">
        <ele>60.7</ele>
        <time>2024-06-11T09:51:40+02:00</time>
      </trkpt>
      <trkpt lat="44.18306" lon="0.70232">
        <ele>60</ele>
        <time>2024-06-11T09:52:15+02:00</time>
      </trkpt>
      <trkpt lat="44.18317" lon="0.70239">
        <ele>60</ele>
        <time>2024-06-11T09:52:34+02:00</time>
      </trkpt>
      <trkpt lat="44.18327" lon="0.70242">
        <ele>60</ele>
        <time>2024-06-11T09:52:43+02:00</time>
      </trkpt>
      <trkpt lat="44.18339" lon="0.70235">
        <ele>60</ele>
        <time>2024-06-11T09:52:53+02:00</time>
      </trkpt>
      <trkpt lat="44.18348" lon="0.70222">
        <ele>60</ele>
        <time>2024-06-11T09:53:03+02:00</time>
      </trkpt>
      <trkpt lat="44.18357" lon="0.70209">
        <ele>60</ele>
        <time>2024-06-11T09:53:18+02:00</time>
      </trkpt>
      <trkpt lat="44.18364" lon="0.70197">
        <ele>60</ele>
        <time>2024-06-11T09:53:28+02:00</time>
      </trkpt>
      <trkpt lat="44.18372" lon="0.70186">
        <ele>60</ele>
        <time>2024-06-11T09:53:43+02:00</time>
      </trkpt>
      <trkpt lat="44.1838" lon="0.70176">
        <ele>60</ele>
        <time>2024-06-11T09:53:53+02:00</time>
      </trkpt>
      <trkpt lat="44.18389" lon="0.7017">
        <ele>60</ele>
        <time>2024-06-11T09:54:03+02:00</time>
      </trkpt>
      <trkpt lat="44.18398" lon="0.70162">
        <ele>59.9</ele>
        <time>2024-06-11T09:54:13+02:00</time>
      </trkpt>
      <trkpt lat="44.18406" lon="0.70149">
        <ele>59.7</ele>
        <time>2024-06-11T09:54:23+02:00</time>
      </trkpt>
      <trkpt lat="44.18412" lon="0.70137">
        <ele>59.8</ele>
        <time>2024-06-11T09:54:33+02:00</time>
      </trkpt>
      <trkpt lat="44.1843" lon="0.70119">
        <ele>60</ele>
        <time>2024-06-11T09:54:53+02:00</time>
      </trkpt>
      <trkpt lat="44.18438" lon="0.7011">
        <ele>60</ele>
        <time>2024-06-11T09:55:03+02:00</time>
      </trkpt>
      <trkpt lat="44.18463" lon="0.70081">
        <ele>60.7</ele>
        <time>2024-06-11T09:55:33+02:00</time>
      </trkpt>
      <trkpt lat="44.18471" lon="0.70072">
        <ele>60.9</ele>
        <time>2024-06-11T09:55:43+02:00</time>
      </trkpt>
      <trkpt lat="44.18484" lon="0.70061">
        <ele>61</ele>
        <time>2024-06-11T09:55:58+02:00</time>
      </trkpt>
      <trkpt lat="44.18497" lon="0.70049">
        <ele>61.2</ele>
        <time>2024-06-11T09:56:13+02:00</time>
      </trkpt>
      <trkpt lat="44.18504" lon="0.70039">
        <ele>61.7</ele>
        <time>2024-06-11T09:56:23+02:00</time>
      </trkpt>
      <trkpt lat="44.18511" lon="0.70031">
        <ele>62.3</ele>
        <time>2024-06-11T09:56:33+02:00</time>
      </trkpt>
      <trkpt lat="44.18521" lon="0.70023">
        <ele>62.8</ele>
        <time>2024-06-11T09:56:43+02:00</time>
      </trkpt>
      <trkpt lat="44.18531" lon="0.70025">
        <ele>63</ele>
        <time>2024-06-11T09:57:08+02:00</time>
      </trkpt>
      <trkpt lat="44.18538" lon="0.70038">
        <ele>62.8</ele>
        <time>2024-06-11T09:57:17+02:00</time>
      </trkpt>
      <trkpt lat="44.18544" lon="0.70052">
        <ele>62.6</ele>
        <time>2024-06-11T09:57:27+02:00</time>
      </trkpt>
      <trkpt lat="44.18552" lon="0.70062">
        <ele>62.9</ele>
        <time>2024-06-11T09:57:36+02:00</time>
      </trkpt>
      <trkpt lat="44.18559" lon="0.70075">
        <ele>63.1</ele>
        <time>2024-06-11T09:57:46+02:00</time>
      </trkpt>
      <trkpt lat="44.18568" lon="0.70088">
        <ele>63.4</ele>
        <time>2024-06-11T09:57:56+02:00</time>
      </trkpt>
      <trkpt lat="44.18583" lon="0.70111">
        <ele>64</ele>
        <time>2024-06-11T09:58:16+02:00</time>
      </trkpt>
      <trkpt lat="44.18595" lon="0.70133">
        <ele>64</ele>
        <time>2024-06-11T09:58:36+02:00</time>
      </trkpt>
      <trkpt lat="44.186" lon="0.70145">
        <ele>64.2</ele>
        <time>2024-06-11T09:58:46+02:00</time>
      </trkpt>
      <trkpt lat="44.18598" lon="0.70166">
        <ele>64.1</ele>
        <time>2024-06-11T09:59:01+02:00</time>
      </trkpt>
      <trkpt lat="44.18599" lon="0.70183">
        <ele>63.6</ele>
        <time>2024-06-11T10:11:50+02:00</time>
      </trkpt>
      <trkpt lat="44.18599" lon="0.70203">
        <ele>63.1</ele>
        <time>2024-06-11T10:12:04+02:00</time>
      </trkpt>
      <trkpt lat="44.18599" lon="0.70217">
        <ele>63.1</ele>
        <time>2024-06-11T10:12:14+02:00</time>
      </trkpt>
      <trkpt lat="44.18598" lon="0.70233">
        <ele>63</ele>
        <time>2024-06-11T10:12:23+02:00</time>
      </trkpt>
      <trkpt lat="44.186" lon="0.70247">
        <ele>63.2</ele>
        <time>2024-06-11T10:12:32+02:00</time>
      </trkpt>
      <trkpt lat="44.186" lon="0.70267">
        <ele>62.8</ele>
        <time>2024-06-11T10:12:42+02:00</time>
      </trkpt>
      <trkpt lat="44.18598" lon="0.7028">
        <ele>62.5</ele>
        <time>2024-06-11T10:12:51+02:00</time>
      </trkpt>
      <trkpt lat="44.18599" lon="0.70293">
        <ele>62.6</ele>
        <time>2024-06-11T10:13:01+02:00</time>
      </trkpt>
      <trkpt lat="44.18595" lon="0.70308">
        <ele>62.4</ele>
        <time>2024-06-11T10:13:15+02:00</time>
      </trkpt>
      <trkpt lat="44.18599" lon="0.70319">
        <ele>62.3</ele>
        <time>2024-06-11T10:13:19+02:00</time>
      </trkpt>
      <trkpt lat="44.18602" lon="0.70333">
        <ele>62.3</ele>
        <time>2024-06-11T10:13:28+02:00</time>
      </trkpt>
      <trkpt lat="44.18603" lon="0.7035">
        <ele>62.6</ele>
        <time>2024-06-11T10:13:39+02:00</time>
      </trkpt>
      <trkpt lat="44.18607" lon="0.70364">
        <ele>62.9</ele>
        <time>2024-06-11T10:13:48+02:00</time>
      </trkpt>
      <trkpt lat="44.18611" lon="0.70378">
        <ele>63</ele>
        <time>2024-06-11T10:13:57+02:00</time>
      </trkpt>
      <trkpt lat="44.18609" lon="0.70396">
        <ele>62.9</ele>
        <time>2024-06-11T10:14:06+02:00</time>
      </trkpt>
      <trkpt lat="44.18605" lon="0.70409">
        <ele>62.8</ele>
        <time>2024-06-11T10:14:16+02:00</time>
      </trkpt>
      <trkpt lat="44.18605" lon="0.70422">
        <ele>62.6</ele>
        <time>2024-06-11T10:14:25+02:00</time>
      </trkpt>
      <trkpt lat="44.18606" lon="0.70437">
        <ele>62.2</ele>
        <time>2024-06-11T10:14:35+02:00</time>
      </trkpt>
      <trkpt lat="44.18608" lon="0.70451">
        <ele>62</ele>
        <time>2024-06-11T10:14:44+02:00</time>
      </trkpt>
      <trkpt lat="44.18608" lon="0.70466">
        <ele>61.9</ele>
        <time>2024-06-11T10:14:54+02:00</time>
      </trkpt>
      <trkpt lat="44.18611" lon="0.70482">
        <ele>62</ele>
        <time>2024-06-11T10:15:03+02:00</time>
      </trkpt>
      <trkpt lat="44.18613" lon="0.70497">
        <ele>62.2</ele>
        <time>2024-06-11T10:15:12+02:00</time>
      </trkpt>
      <trkpt lat="44.18615" lon="0.70511">
        <ele>62.2</ele>
        <time>2024-06-11T10:15:21+02:00</time>
      </trkpt>
      <trkpt lat="44.18616" lon="0.70526">
        <ele>62.2</ele>
        <time>2024-06-11T10:15:30+02:00</time>
      </trkpt>
      <trkpt lat="44.18613" lon="0.70541">
        <ele>62.1</ele>
        <time>2024-06-11T10:15:40+02:00</time>
      </trkpt>
      <trkpt lat="44.18615" lon="0.70554">
        <ele>62.1</ele>
        <time>2024-06-11T10:15:49+02:00</time>
      </trkpt>
      <trkpt lat="44.18613" lon="0.70572">
        <ele>62.1</ele>
        <time>2024-06-11T10:15:58+02:00</time>
      </trkpt>
      <trkpt lat="44.18614" lon="0.70585">
        <ele>62.1</ele>
        <time>2024-06-11T10:16:08+02:00</time>
      </trkpt>
      <trkpt lat="44.18615" lon="0.70601">
        <ele>62.1</ele>
        <time>2024-06-11T10:16:22+02:00</time>
      </trkpt>
      <trkpt lat="44.18612" lon="0.70617">
        <ele>62</ele>
        <time>2024-06-11T10:16:32+02:00</time>
      </trkpt>
      <trkpt lat="44.18606" lon="0.70645">
        <ele>62</ele>
        <time>2024-06-11T10:16:57+02:00</time>
      </trkpt>
      <trkpt lat="44.18601" lon="0.70657">
        <ele>62.2</ele>
        <time>2024-06-11T10:17:07+02:00</time>
      </trkpt>
      <trkpt lat="44.18595" lon="0.70671">
        <ele>62.7</ele>
        <time>2024-06-11T10:17:17+02:00</time>
      </trkpt>
      <trkpt lat="44.18592" lon="0.70686">
        <ele>63.2</ele>
        <time>2024-06-11T10:17:27+02:00</time>
      </trkpt>
      <trkpt lat="44.1859" lon="0.70701">
        <ele>63.5</ele>
        <time>2024-06-11T10:17:37+02:00</time>
      </trkpt>
      <trkpt lat="44.1859" lon="0.70718">
        <ele>63.5</ele>
        <time>2024-06-11T10:17:47+02:00</time>
      </trkpt>
      <trkpt lat="44.18588" lon="0.70734">
        <ele>63.7</ele>
        <time>2024-06-11T10:17:57+02:00</time>
      </trkpt>
      <trkpt lat="44.18589" lon="0.7075">
        <ele>63.8</ele>
        <time>2024-06-11T10:18:07+02:00</time>
      </trkpt>
      <trkpt lat="44.18585" lon="0.70779">
        <ele>64.9</ele>
        <time>2024-06-11T10:18:27+02:00</time>
      </trkpt>
      <trkpt lat="44.18583" lon="0.70795">
        <ele>65</ele>
        <time>2024-06-11T10:18:37+02:00</time>
      </trkpt>
      <trkpt lat="44.18583" lon="0.70811">
        <ele>65.2</ele>
        <time>2024-06-11T10:18:47+02:00</time>
      </trkpt>
      <trkpt lat="44.18583" lon="0.70827">
        <ele>65.8</ele>
        <time>2024-06-11T10:18:57+02:00</time>
      </trkpt>
      <trkpt lat="44.1858" lon="0.70841">
        <ele>66.7</ele>
        <time>2024-06-11T10:19:07+02:00</time>
      </trkpt>
      <trkpt lat="44.1858" lon="0.70855">
        <ele>67.2</ele>
        <time>2024-06-11T10:19:17+02:00</time>
      </trkpt>
      <trkpt lat="44.18579" lon="0.7087">
        <ele>68</ele>
        <time>2024-06-11T10:19:27+02:00</time>
      </trkpt>
      <trkpt lat="44.18581" lon="0.70885">
        <ele>68.8</ele>
        <time>2024-06-11T10:19:37+02:00</time>
      </trkpt>
      <trkpt lat="44.18586" lon="0.70896">
        <ele>69.5</ele>
        <time>2024-06-11T10:21:17+02:00</time>
      </trkpt>
      <trkpt lat="44.18595" lon="0.70904">
        <ele>70.2</ele>
        <time>2024-06-11T10:28:07+02:00</time>
      </trkpt>
      <trkpt lat="44.18604" lon="0.70912">
        <ele>71.2</ele>
        <time>2024-06-11T10:28:17+02:00</time>
      </trkpt>
      <trkpt lat="44.18615" lon="0.70919">
        <ele>72.2</ele>
        <time>2024-06-11T10:28:27+02:00</time>
      </trkpt>
      <trkpt lat="44.18623" lon="0.70929">
        <ele>73.3</ele>
        <time>2024-06-11T10:28:37+02:00</time>
      </trkpt>
      <trkpt lat="44.18626" lon="0.70943">
        <ele>74.9</ele>
        <time>2024-06-11T10:28:47+02:00</time>
      </trkpt>
      <trkpt lat="44.18618" lon="0.70958">
        <ele>77</ele>
        <time>2024-06-11T10:29:02+02:00</time>
      </trkpt>
      <trkpt lat="44.18623" lon="0.70972">
        <ele>79.8</ele>
        <time>2024-06-11T10:30:07+02:00</time>
      </trkpt>
      <trkpt lat="44.18631" lon="0.70982">
        <ele>82.5</ele>
        <time>2024-06-11T10:30:22+02:00</time>
      </trkpt>
      <trkpt lat="44.18641" lon="0.70987">
        <ele>83.3</ele>
        <time>2024-06-11T10:30:37+02:00</time>
      </trkpt>
      <trkpt lat="44.18645" lon="0.71002">
        <ele>85.1</ele>
        <time>2024-06-11T10:31:02+02:00</time>
      </trkpt>
      <trkpt lat="44.18644" lon="0.71016">
        <ele>87.7</ele>
        <time>2024-06-11T10:31:17+02:00</time>
      </trkpt>
      <trkpt lat="44.18649" lon="0.71048">
        <ele>91.4</ele>
        <time>2024-06-11T10:31:47+02:00</time>
      </trkpt>
      <trkpt lat="44.18649" lon="0.71062">
        <ele>92.6</ele>
        <time>2024-06-11T10:31:57+02:00</time>
      </trkpt>
      <trkpt lat="44.18651" lon="0.71079">
        <ele>93.4</ele>
        <time>2024-06-11T10:32:17+02:00</time>
      </trkpt>
      <trkpt lat="44.18648" lon="0.71094">
        <ele>95.1</ele>
        <time>2024-06-11T10:32:32+02:00</time>
      </trkpt>
      <trkpt lat="44.18652" lon="0.7111">
        <ele>96.8</ele>
        <time>2024-06-11T10:33:47+02:00</time>
      </trkpt>
      <trkpt lat="44.18647" lon="0.71129">
        <ele>100.1</ele>
        <time>2024-06-11T10:34:02+02:00</time>
      </trkpt>
      <trkpt lat="44.18644" lon="0.71144">
        <ele>102.1</ele>
        <time>2024-06-11T10:34:12+02:00</time>
      </trkpt>
      <trkpt lat="44.18639" lon="0.71162">
        <ele>103.5</ele>
        <time>2024-06-11T10:34:21+02:00</time>
      </trkpt>
      <trkpt lat="44.18635" lon="0.71179">
        <ele>105.8</ele>
        <time>2024-06-11T10:34:31+02:00</time>
      </trkpt>
      <trkpt lat="44.18632" lon="0.71193">
        <ele>107.6</ele>
        <time>2024-06-11T10:34:41+02:00</time>
      </trkpt>
      <trkpt lat="44.1863" lon="0.71209">
        <ele>109.3</ele>
        <time>2024-06-11T10:34:51+02:00</time>
      </trkpt>
      <trkpt lat="44.18633" lon="0.71227">
        <ele>113.2</ele>
        <time>2024-06-11T10:35:01+02:00</time>
      </trkpt>
      <trkpt lat="44.18634" lon="0.71241">
        <ele>116.9</ele>
        <time>2024-06-11T10:35:11+02:00</time>
      </trkpt>
      <trkpt lat="44.18635" lon="0.71257">
        <ele>119.9</ele>
        <time>2024-06-11T10:35:26+02:00</time>
      </trkpt>
      <trkpt lat="44.18631" lon="0.71284">
        <ele>121.7</ele>
        <time>2024-06-11T10:35:46+02:00</time>
      </trkpt>
      <trkpt lat="44.18642" lon="0.71283">
        <ele>125.8</ele>
        <time>2024-06-11T10:36:06+02:00</time>
      </trkpt>
      <trkpt lat="44.18649" lon="0.71275">
        <ele>128.2</ele>
        <time>2024-06-11T10:36:16+02:00</time>
      </trkpt>
      <trkpt lat="44.18658" lon="0.71264">
        <ele>130.6</ele>
        <time>2024-06-11T10:36:36+02:00</time>
      </trkpt>
      <trkpt lat="44.18665" lon="0.71255">
        <ele>131.5</ele>
        <time>2024-06-11T10:36:51+02:00</time>
      </trkpt>
      <trkpt lat="44.18677" lon="0.71253">
        <ele>133.1</ele>
        <time>2024-06-11T10:37:11+02:00</time>
      </trkpt>
      <trkpt lat="44.18702" lon="0.71249">
        <ele>131.2</ele>
        <time>2024-06-11T10:37:31+02:00</time>
      </trkpt>
      <trkpt lat="44.18713" lon="0.7125">
        <ele>128.2</ele>
        <time>2024-06-11T10:37:46+02:00</time>
      </trkpt>
      <trkpt lat="44.18722" lon="0.71255">
        <ele>126.7</ele>
        <time>2024-06-11T10:37:56+02:00</time>
      </trkpt>
      <trkpt lat="44.18731" lon="0.71265">
        <ele>127</ele>
        <time>2024-06-11T10:38:06+02:00</time>
      </trkpt>
      <trkpt lat="44.18745" lon="0.7127">
        <ele>124.7</ele>
        <time>2024-06-11T10:38:16+02:00</time>
      </trkpt>
      <trkpt lat="44.1875" lon="0.71283">
        <ele>125</ele>
        <time>2024-06-11T10:38:26+02:00</time>
      </trkpt>
      <trkpt lat="44.18756" lon="0.71299">
        <ele>123.1</ele>
        <time>2024-06-11T10:38:36+02:00</time>
      </trkpt>
      <trkpt lat="44.18762" lon="0.71315">
        <ele>121.9</ele>
        <time>2024-06-11T10:38:46+02:00</time>
      </trkpt>
      <trkpt lat="44.18765" lon="0.71329">
        <ele>121.5</ele>
        <time>2024-06-11T10:38:55+02:00</time>
      </trkpt>
      <trkpt lat="44.18772" lon="0.71338">
        <ele>120.5</ele>
        <time>2024-06-11T10:39:04+02:00</time>
      </trkpt>
      <trkpt lat="44.18779" lon="0.71349">
        <ele>120.6</ele>
        <time>2024-06-11T10:39:20+02:00</time>
      </trkpt>
      <trkpt lat="44.18789" lon="0.71361">
        <ele>120.2</ele>
        <time>2024-06-11T10:39:35+02:00</time>
      </trkpt>
      <trkpt lat="44.18795" lon="0.71375">
        <ele>120.5</ele>
        <time>2024-06-11T10:39:50+02:00</time>
      </trkpt>
      <trkpt lat="44.18802" lon="0.71382">
        <ele>119.8</ele>
        <time>2024-06-11T10:40:00+02:00</time>
      </trkpt>
      <trkpt lat="44.18814" lon="0.71392">
        <ele>118.4</ele>
        <time>2024-06-11T10:40:10+02:00</time>
      </trkpt>
      <trkpt lat="44.18826" lon="0.71402">
        <ele>117.6</ele>
        <time>2024-06-11T10:40:20+02:00</time>
      </trkpt>
      <trkpt lat="44.1884" lon="0.71417">
        <ele>117.7</ele>
        <time>2024-06-11T10:40:30+02:00</time>
      </trkpt>
      <trkpt lat="44.18852" lon="0.71421">
        <ele>115.7</ele>
        <time>2024-06-11T10:40:40+02:00</time>
      </trkpt>
      <trkpt lat="44.1886" lon="0.7143">
        <ele>115.2</ele>
        <time>2024-06-11T10:40:50+02:00</time>
      </trkpt>
      <trkpt lat="44.18869" lon="0.71441">
        <ele>113.9</ele>
        <time>2024-06-11T10:41:00+02:00</time>
      </trkpt>
      <trkpt lat="44.18874" lon="0.71455">
        <ele>112.7</ele>
        <time>2024-06-11T10:41:10+02:00</time>
      </trkpt>
      <trkpt lat="44.18887" lon="0.7148">
        <ele>108.2</ele>
        <time>2024-06-11T10:41:30+02:00</time>
      </trkpt>
      <trkpt lat="44.18893" lon="0.71494">
        <ele>105.8</ele>
        <time>2024-06-11T10:41:40+02:00</time>
      </trkpt>
      <trkpt lat="44.18895" lon="0.7151">
        <ele>105.2</ele>
        <time>2024-06-11T10:41:50+02:00</time>
      </trkpt>
      <trkpt lat="44.18897" lon="0.71526">
        <ele>104.3</ele>
        <time>2024-06-11T10:42:00+02:00</time>
      </trkpt>
      <trkpt lat="44.18902" lon="0.7154">
        <ele>102.2</ele>
        <time>2024-06-11T10:42:10+02:00</time>
      </trkpt>
      <trkpt lat="44.18906" lon="0.71552">
        <ele>100.6</ele>
        <time>2024-06-11T10:42:20+02:00</time>
      </trkpt>
      <trkpt lat="44.18911" lon="0.71564">
        <ele>98.6</ele>
        <time>2024-06-11T10:42:30+02:00</time>
      </trkpt>
      <trkpt lat="44.18919" lon="0.71581">
        <ele>96.1</ele>
        <time>2024-06-11T10:42:45+02:00</time>
      </trkpt>
      <trkpt lat="44.18918" lon="0.71595">
        <ele>96.7</ele>
        <time>2024-06-11T10:42:55+02:00</time>
      </trkpt>
      <trkpt lat="44.18924" lon="0.7161">
        <ele>94</ele>
        <time>2024-06-11T10:43:10+02:00</time>
      </trkpt>
      <trkpt lat="44.18926" lon="0.71624">
        <ele>92.9</ele>
        <time>2024-06-11T10:43:20+02:00</time>
      </trkpt>
      <trkpt lat="44.1893" lon="0.71638">
        <ele>90.8</ele>
        <time>2024-06-11T10:43:30+02:00</time>
      </trkpt>
      <trkpt lat="44.18931" lon="0.71651">
        <ele>90.9</ele>
        <time>2024-06-11T10:43:39+02:00</time>
      </trkpt>
      <trkpt lat="44.18938" lon="0.71667">
        <ele>89.8</ele>
        <time>2024-06-11T10:43:53+02:00</time>
      </trkpt>
      <trkpt lat="44.18946" lon="0.71675">
        <ele>88.8</ele>
        <time>2024-06-11T10:44:03+02:00</time>
      </trkpt>
      <trkpt lat="44.18957" lon="0.71686">
        <ele>88.4</ele>
        <time>2024-06-11T10:44:18+02:00</time>
      </trkpt>
      <trkpt lat="44.18968" lon="0.71692">
        <ele>87.4</ele>
        <time>2024-06-11T10:44:28+02:00</time>
      </trkpt>
      <trkpt lat="44.18991" lon="0.71701">
        <ele>85.1</ele>
        <time>2024-06-11T10:44:53+02:00</time>
      </trkpt>
      <trkpt lat="44.19001" lon="0.71704">
        <ele>83.8</ele>
        <time>2024-06-11T10:45:03+02:00</time>
      </trkpt>
      <trkpt lat="44.19012" lon="0.71708">
        <ele>82</ele>
        <time>2024-06-11T10:45:13+02:00</time>
      </trkpt>
      <trkpt lat="44.19021" lon="0.71713">
        <ele>80.4</ele>
        <time>2024-06-11T10:45:23+02:00</time>
      </trkpt>
      <trkpt lat="44.19035" lon="0.71716">
        <ele>77</ele>
        <time>2024-06-11T10:45:33+02:00</time>
      </trkpt>
      <trkpt lat="44.19045" lon="0.71723">
        <ele>74.5</ele>
        <time>2024-06-11T10:45:43+02:00</time>
      </trkpt>
      <trkpt lat="44.19054" lon="0.71733">
        <ele>71.8</ele>
        <time>2024-06-11T10:45:53+02:00</time>
      </trkpt>
      <trkpt lat="44.1906" lon="0.71768">
        <ele>72.2</ele>
        <time>2024-06-11T10:46:13+02:00</time>
      </trkpt>
      <trkpt lat="44.1906" lon="0.71786">
        <ele>72.8</ele>
        <time>2024-06-11T10:46:28+02:00</time>
      </trkpt>
      <trkpt lat="44.1906" lon="0.71803">
        <ele>73.2</ele>
        <time>2024-06-11T10:46:38+02:00</time>
      </trkpt>
      <trkpt lat="44.19063" lon="0.7182">
        <ele>73.1</ele>
        <time>2024-06-11T10:46:48+02:00</time>
      </trkpt>
      <trkpt lat="44.19059" lon="0.71833">
        <ele>73.6</ele>
        <time>2024-06-11T10:47:13+02:00</time>
      </trkpt>
      <trkpt lat="44.19069" lon="0.71844">
        <ele>72.5</ele>
        <time>2024-06-11T10:47:53+02:00</time>
      </trkpt>
      <trkpt lat="44.19075" lon="0.71852">
        <ele>71.9</ele>
        <time>2024-06-11T10:49:47+02:00</time>
      </trkpt>
      <trkpt lat="44.19076" lon="0.71841">
        <ele>71.8</ele>
        <time>2024-06-11T10:53:11+02:00</time>
      </trkpt>
      <trkpt lat="44.19085" lon="0.71838">
        <ele>71</ele>
        <time>2024-06-11T10:53:21+02:00</time>
      </trkpt>
      <trkpt lat="44.19095" lon="0.71835">
        <ele>71</ele>
        <time>2024-06-11T10:53:26+02:00</time>
      </trkpt>
      <trkpt lat="44.19108" lon="0.71832">
        <ele>70.9</ele>
        <time>2024-06-11T10:53:35+02:00</time>
      </trkpt>
      <trkpt lat="44.19119" lon="0.71827">
        <ele>70.6</ele>
        <time>2024-06-11T10:53:45+02:00</time>
      </trkpt>
      <trkpt lat="44.19131" lon="0.71819">
        <ele>70.1</ele>
        <time>2024-06-11T10:53:59+02:00</time>
      </trkpt>
      <trkpt lat="44.19139" lon="0.7181">
        <ele>70</ele>
        <time>2024-06-11T10:54:08+02:00</time>
      </trkpt>
      <trkpt lat="44.19148" lon="0.71794">
        <ele>70.3</ele>
        <time>2024-06-11T10:54:22+02:00</time>
      </trkpt>
      <trkpt lat="44.19152" lon="0.71782">
        <ele>70.4</ele>
        <time>2024-06-11T10:54:31+02:00</time>
      </trkpt>
      <trkpt lat="44.19159" lon="0.71765">
        <ele>70.5</ele>
        <time>2024-06-11T10:54:40+02:00</time>
      </trkpt>
      <trkpt lat="44.19164" lon="0.71751">
        <ele>70.9</ele>
        <time>2024-06-11T10:54:50+02:00</time>
      </trkpt>
      <trkpt lat="44.19171" lon="0.7174">
        <ele>71</ele>
        <time>2024-06-11T10:54:59+02:00</time>
      </trkpt>
      <trkpt lat="44.19176" lon="0.7173">
        <ele>71</ele>
        <time>2024-06-11T10:55:08+02:00</time>
      </trkpt>
      <trkpt lat="44.19183" lon="0.71716">
        <ele>71.1</ele>
        <time>2024-06-11T10:55:18+02:00</time>
      </trkpt>
      <trkpt lat="44.1919" lon="0.71701">
        <ele>71.6</ele>
        <time>2024-06-11T10:55:27+02:00</time>
      </trkpt>
      <trkpt lat="44.19197" lon="0.7169">
        <ele>71.9</ele>
        <time>2024-06-11T10:55:37+02:00</time>
      </trkpt>
      <trkpt lat="44.19203" lon="0.71681">
        <ele>71.8</ele>
        <time>2024-06-11T10:55:47+02:00</time>
      </trkpt>
      <trkpt lat="44.1921" lon="0.71672">
        <ele>72.1</ele>
        <time>2024-06-11T10:55:56+02:00</time>
      </trkpt>
      <trkpt lat="44.19218" lon="0.7166">
        <ele>72.9</ele>
        <time>2024-06-11T10:56:06+02:00</time>
      </trkpt>
      <trkpt lat="44.19229" lon="0.71634">
        <ele>74.6</ele>
        <time>2024-06-11T10:56:26+02:00</time>
      </trkpt>
      <trkpt lat="44.19235" lon="0.71621">
        <ele>75.3</ele>
        <time>2024-06-11T10:56:36+02:00</time>
      </trkpt>
      <trkpt lat="44.19242" lon="0.71606">
        <ele>75.7</ele>
        <time>2024-06-11T10:56:46+02:00</time>
      </trkpt>
      <trkpt lat="44.19251" lon="0.71602">
        <ele>76.1</ele>
        <time>2024-06-11T10:56:56+02:00</time>
      </trkpt>
      <trkpt lat="44.19255" lon="0.7162">
        <ele>76.3</ele>
        <time>2024-06-11T10:58:56+02:00</time>
      </trkpt>
      <trkpt lat="44.1926" lon="0.71634">
        <ele>76.4</ele>
        <time>2024-06-11T10:59:06+02:00</time>
      </trkpt>
      <trkpt lat="44.19266" lon="0.71647">
        <ele>76.1</ele>
        <time>2024-06-11T10:59:16+02:00</time>
      </trkpt>
      <trkpt lat="44.19273" lon="0.71663">
        <ele>75.2</ele>
        <time>2024-06-11T10:59:26+02:00</time>
      </trkpt>
      <trkpt lat="44.19279" lon="0.71677">
        <ele>74.7</ele>
        <time>2024-06-11T10:59:36+02:00</time>
      </trkpt>
      <trkpt lat="44.1929" lon="0.71676">
        <ele>75.2</ele>
        <time>2024-06-11T10:59:46+02:00</time>
      </trkpt>
      <trkpt lat="44.19297" lon="0.71665">
        <ele>75.8</ele>
        <time>2024-06-11T10:59:56+02:00</time>
      </trkpt>
      <trkpt lat="44.19302" lon="0.71654">
        <ele>76.4</ele>
        <time>2024-06-11T11:00:06+02:00</time>
      </trkpt>
      <trkpt lat="44.1931" lon="0.71639">
        <ele>77</ele>
        <time>2024-06-11T11:00:16+02:00</time>
      </trkpt>
      <trkpt lat="44.19317" lon="0.71625">
        <ele>77.3</ele>
        <time>2024-06-11T11:00:25+02:00</time>
      </trkpt>
      <trkpt lat="44.19322" lon="0.71612">
        <ele>77.4</ele>
        <time>2024-06-11T11:00:35+02:00</time>
      </trkpt>
      <trkpt lat="44.19329" lon="0.716">
        <ele>77.6</ele>
        <time>2024-06-11T11:00:44+02:00</time>
      </trkpt>
      <trkpt lat="44.19334" lon="0.71587">
        <ele>77.9</ele>
        <time>2024-06-11T11:00:54+02:00</time>
      </trkpt>
      <trkpt lat="44.1934" lon="0.71573">
        <ele>78.8</ele>
        <time>2024-06-11T11:01:04+02:00</time>
      </trkpt>
      <trkpt lat="44.19347" lon="0.71558">
        <ele>79.4</ele>
        <time>2024-06-11T11:01:14+02:00</time>
      </trkpt>
      <trkpt lat="44.19352" lon="0.71544">
        <ele>79.9</ele>
        <time>2024-06-11T11:01:24+02:00</time>
      </trkpt>
      <trkpt lat="44.1936" lon="0.71532">
        <ele>80</ele>
        <time>2024-06-11T11:01:34+02:00</time>
      </trkpt>
      <trkpt lat="44.19365" lon="0.71519">
        <ele>81.2</ele>
        <time>2024-06-11T11:01:44+02:00</time>
      </trkpt>
      <trkpt lat="44.19372" lon="0.71504">
        <ele>82.5</ele>
        <time>2024-06-11T11:01:54+02:00</time>
      </trkpt>
      <trkpt lat="44.19379" lon="0.7149">
        <ele>83</ele>
        <time>2024-06-11T11:02:04+02:00</time>
      </trkpt>
      <trkpt lat="44.19388" lon="0.71477">
        <ele>82.8</ele>
        <time>2024-06-11T11:02:14+02:00</time>
      </trkpt>
      <trkpt lat="44.19396" lon="0.71468">
        <ele>83.2</ele>
        <time>2024-06-11T11:02:24+02:00</time>
      </trkpt>
      <trkpt lat="44.19404" lon="0.71457">
        <ele>83.7</ele>
        <time>2024-06-11T11:02:34+02:00</time>
      </trkpt>
      <trkpt lat="44.19413" lon="0.71445">
        <ele>83.4</ele>
        <time>2024-06-11T11:02:44+02:00</time>
      </trkpt>
      <trkpt lat="44.19423" lon="0.71434">
        <ele>84</ele>
        <time>2024-06-11T11:02:54+02:00</time>
      </trkpt>
      <trkpt lat="44.19432" lon="0.71426">
        <ele>84.3</ele>
        <time>2024-06-11T11:03:04+02:00</time>
      </trkpt>
      <trkpt lat="44.19443" lon="0.71414">
        <ele>84.5</ele>
        <time>2024-06-11T11:03:14+02:00</time>
      </trkpt>
      <trkpt lat="44.1945" lon="0.71405">
        <ele>85.4</ele>
        <time>2024-06-11T11:03:24+02:00</time>
      </trkpt>
      <trkpt lat="44.19462" lon="0.71395">
        <ele>85.7</ele>
        <time>2024-06-11T11:03:34+02:00</time>
      </trkpt>
      <trkpt lat="44.19472" lon="0.71384">
        <ele>85.7</ele>
        <time>2024-06-11T11:03:44+02:00</time>
      </trkpt>
      <trkpt lat="44.1948" lon="0.71374">
        <ele>86.7</ele>
        <time>2024-06-11T11:03:54+02:00</time>
      </trkpt>
      <trkpt lat="44.19489" lon="0.71366">
        <ele>86.8</ele>
        <time>2024-06-11T11:04:04+02:00</time>
      </trkpt>
      <trkpt lat="44.19498" lon="0.71359">
        <ele>86.6</ele>
        <time>2024-06-11T11:04:14+02:00</time>
      </trkpt>
      <trkpt lat="44.19506" lon="0.71353">
        <ele>86.9</ele>
        <time>2024-06-11T11:04:24+02:00</time>
      </trkpt>
      <trkpt lat="44.19513" lon="0.71346">
        <ele>87.4</ele>
        <time>2024-06-11T11:04:34+02:00</time>
      </trkpt>
      <trkpt lat="44.19521" lon="0.71338">
        <ele>87.5</ele>
        <time>2024-06-11T11:04:44+02:00</time>
      </trkpt>
      <trkpt lat="44.19531" lon="0.71326">
        <ele>87.9</ele>
        <time>2024-06-11T11:04:54+02:00</time>
      </trkpt>
      <trkpt lat="44.19539" lon="0.71316">
        <ele>88.8</ele>
        <time>2024-06-11T11:05:03+02:00</time>
      </trkpt>
      <trkpt lat="44.1955" lon="0.71305">
        <ele>88.8</ele>
        <time>2024-06-11T11:05:13+02:00</time>
      </trkpt>
      <trkpt lat="44.1956" lon="0.71295">
        <ele>89.3</ele>
        <time>2024-06-11T11:05:22+02:00</time>
      </trkpt>
      <trkpt lat="44.1957" lon="0.71284">
        <ele>89.9</ele>
        <time>2024-06-11T11:05:32+02:00</time>
      </trkpt>
      <trkpt lat="44.19578" lon="0.71277">
        <ele>89.8</ele>
        <time>2024-06-11T11:05:42+02:00</time>
      </trkpt>
      <trkpt lat="44.19586" lon="0.71268">
        <ele>90.4</ele>
        <time>2024-06-11T11:05:52+02:00</time>
      </trkpt>
      <trkpt lat="44.19593" lon="0.71256">
        <ele>91.3</ele>
        <time>2024-06-11T11:06:02+02:00</time>
      </trkpt>
      <trkpt lat="44.19604" lon="0.71245">
        <ele>91.5</ele>
        <time>2024-06-11T11:06:12+02:00</time>
      </trkpt>
      <trkpt lat="44.19615" lon="0.71232">
        <ele>91.8</ele>
        <time>2024-06-11T11:06:22+02:00</time>
      </trkpt>
      <trkpt lat="44.19624" lon="0.71221">
        <ele>92.2</ele>
        <time>2024-06-11T11:06:32+02:00</time>
      </trkpt>
      <trkpt lat="44.19634" lon="0.71211">
        <ele>92.1</ele>
        <time>2024-06-11T11:06:42+02:00</time>
      </trkpt>
      <trkpt lat="44.19642" lon="0.71202">
        <ele>91.7</ele>
        <time>2024-06-11T11:06:52+02:00</time>
      </trkpt>
      <trkpt lat="44.19652" lon="0.71189">
        <ele>92.8</ele>
        <time>2024-06-11T11:07:07+02:00</time>
      </trkpt>
      <trkpt lat="44.1966" lon="0.71177">
        <ele>93.7</ele>
        <time>2024-06-11T11:07:22+02:00</time>
      </trkpt>
      <trkpt lat="44.19663" lon="0.71165">
        <ele>94.4</ele>
        <time>2024-06-11T11:08:27+02:00</time>
      </trkpt>
      <trkpt lat="44.19671" lon="0.71157">
        <ele>94.4</ele>
        <time>2024-06-11T11:08:42+02:00</time>
      </trkpt>
      <trkpt lat="44.19681" lon="0.71148">
        <ele>95</ele>
        <time>2024-06-11T11:08:57+02:00</time>
      </trkpt>
      <trkpt lat="44.1969" lon="0.71143">
        <ele>95.6</ele>
        <time>2024-06-11T11:09:07+02:00</time>
      </trkpt>
      <trkpt lat="44.197" lon="0.71138">
        <ele>96.2</ele>
        <time>2024-06-11T11:09:22+02:00</time>
      </trkpt>
      <trkpt lat="44.19709" lon="0.71131">
        <ele>96.7</ele>
        <time>2024-06-11T11:09:32+02:00</time>
      </trkpt>
      <trkpt lat="44.19729" lon="0.71121">
        <ele>98.7</ele>
        <time>2024-06-11T11:09:52+02:00</time>
      </trkpt>
      <trkpt lat="44.19739" lon="0.71118">
        <ele>100.2</ele>
        <time>2024-06-11T11:10:01+02:00</time>
      </trkpt>
      <trkpt lat="44.19751" lon="0.71108">
        <ele>102</ele>
        <time>2024-06-11T11:10:15+02:00</time>
      </trkpt>
      <trkpt lat="44.1976" lon="0.71099">
        <ele>102.9</ele>
        <time>2024-06-11T11:10:25+02:00</time>
      </trkpt>
      <trkpt lat="44.19771" lon="0.71098">
        <ele>104.4</ele>
        <time>2024-06-11T11:10:35+02:00</time>
      </trkpt>
      <trkpt lat="44.19779" lon="0.71105">
        <ele>105.4</ele>
        <time>2024-06-11T11:10:45+02:00</time>
      </trkpt>
      <trkpt lat="44.19788" lon="0.71117">
        <ele>105.8</ele>
        <time>2024-06-11T11:11:00+02:00</time>
      </trkpt>
      <trkpt lat="44.19796" lon="0.71125">
        <ele>106.1</ele>
        <time>2024-06-11T11:11:10+02:00</time>
      </trkpt>
      <trkpt lat="44.19806" lon="0.71129">
        <ele>106.8</ele>
        <time>2024-06-11T11:11:20+02:00</time>
      </trkpt>
      <trkpt lat="44.19818" lon="0.71131">
        <ele>107.3</ele>
        <time>2024-06-11T11:11:30+02:00</time>
      </trkpt>
      <trkpt lat="44.1983" lon="0.71131">
        <ele>108.1</ele>
        <time>2024-06-11T11:11:40+02:00</time>
      </trkpt>
      <trkpt lat="44.1984" lon="0.7113">
        <ele>108.6</ele>
        <time>2024-06-11T11:11:50+02:00</time>
      </trkpt>
      <trkpt lat="44.19852" lon="0.71125">
        <ele>109.5</ele>
        <time>2024-06-11T11:12:05+02:00</time>
      </trkpt>
      <trkpt lat="44.19866" lon="0.71122">
        <ele>110.6</ele>
        <time>2024-06-11T11:12:15+02:00</time>
      </trkpt>
      <trkpt lat="44.19878" lon="0.71118">
        <ele>111.7</ele>
        <time>2024-06-11T11:12:25+02:00</time>
      </trkpt>
      <trkpt lat="44.19905" lon="0.71113">
        <ele>113.5</ele>
        <time>2024-06-11T11:12:50+02:00</time>
      </trkpt>
      <trkpt lat="44.19916" lon="0.71108">
        <ele>114.2</ele>
        <time>2024-06-11T11:13:00+02:00</time>
      </trkpt>
      <trkpt lat="44.19928" lon="0.71106">
        <ele>115.7</ele>
        <time>2024-06-11T11:13:10+02:00</time>
      </trkpt>
      <trkpt lat="44.19937" lon="0.71099">
        <ele>116.8</ele>
        <time>2024-06-11T11:13:20+02:00</time>
      </trkpt>
      <trkpt lat="44.19955" lon="0.71092">
        <ele>118.2</ele>
        <time>2024-06-11T11:13:40+02:00</time>
      </trkpt>
      <trkpt lat="44.19965" lon="0.7109">
        <ele>118.8</ele>
        <time>2024-06-11T11:13:50+02:00</time>
      </trkpt>
      <trkpt lat="44.19975" lon="0.71087">
        <ele>119.7</ele>
        <time>2024-06-11T11:14:00+02:00</time>
      </trkpt>
      <trkpt lat="44.19987" lon="0.71082">
        <ele>121.1</ele>
        <time>2024-06-11T11:14:10+02:00</time>
      </trkpt>
      <trkpt lat="44.19996" lon="0.71082">
        <ele>122.4</ele>
        <time>2024-06-11T11:14:20+02:00</time>
      </trkpt>
      <trkpt lat="44.20005" lon="0.71076">
        <ele>123.9</ele>
        <time>2024-06-11T11:14:30+02:00</time>
      </trkpt>
      <trkpt lat="44.20014" lon="0.71071">
        <ele>125.5</ele>
        <time>2024-06-11T11:14:39+02:00</time>
      </trkpt>
      <trkpt lat="44.20019" lon="0.71054">
        <ele>126.1</ele>
        <time>2024-06-11T11:14:54+02:00</time>
      </trkpt>
      <trkpt lat="44.20022" lon="0.71036">
        <ele>127.6</ele>
        <time>2024-06-11T11:15:08+02:00</time>
      </trkpt>
      <trkpt lat="44.2002" lon="0.71023">
        <ele>128.1</ele>
        <time>2024-06-11T11:15:18+02:00</time>
      </trkpt>
      <trkpt lat="44.20015" lon="0.71009">
        <ele>129</ele>
        <time>2024-06-11T11:15:28+02:00</time>
      </trkpt>
      <trkpt lat="44.20007" lon="0.70997">
        <ele>129.7</ele>
        <time>2024-06-11T11:15:38+02:00</time>
      </trkpt>
      <trkpt lat="44.19996" lon="0.70987">
        <ele>131.3</ele>
        <time>2024-06-11T11:15:48+02:00</time>
      </trkpt>
      <trkpt lat="44.19987" lon="0.70984">
        <ele>131.6</ele>
        <time>2024-06-11T11:15:58+02:00</time>
      </trkpt>
      <trkpt lat="44.19978" lon="0.70979">
        <ele>132.1</ele>
        <time>2024-06-11T11:16:08+02:00</time>
      </trkpt>
      <trkpt lat="44.19968" lon="0.70985">
        <ele>131</ele>
        <time>2024-06-11T11:16:43+02:00</time>
      </trkpt>
      <trkpt lat="44.19959" lon="0.70985">
        <ele>131.7</ele>
        <time>2024-06-11T11:17:13+02:00</time>
      </trkpt>
      <trkpt lat="44.1996" lon="0.70979">
        <ele>133</ele>
        <time>2024-06-11T11:22:42+02:00</time>
      </trkpt>
      <trkpt lat="44.19968" lon="0.70972">
        <ele>133.7</ele>
        <time>2024-06-11T11:23:56+02:00</time>
      </trkpt>
      <trkpt lat="44.19955" lon="0.70968">
        <ele>136.6</ele>
        <time>2024-06-11T11:24:15+02:00</time>
      </trkpt>
      <trkpt lat="44.19946" lon="0.70973">
        <ele>135.6</ele>
        <time>2024-06-11T11:24:25+02:00</time>
      </trkpt>
      <trkpt lat="44.19937" lon="0.70977">
        <ele>135.9</ele>
        <time>2024-06-11T11:24:35+02:00</time>
      </trkpt>
      <trkpt lat="44.19927" lon="0.70983">
        <ele>135.7</ele>
        <time>2024-06-11T11:24:45+02:00</time>
      </trkpt>
      <trkpt lat="44.19917" lon="0.70987">
        <ele>136.2</ele>
        <time>2024-06-11T11:24:55+02:00</time>
      </trkpt>
      <trkpt lat="44.19905" lon="0.70982">
        <ele>136.2</ele>
      </trkpt>
      <trkpt lat="44.19899" lon="0.70952">
        <ele>137.6</ele>
      </trkpt>
      <trkpt lat="44.19904" lon="0.70918">
        <ele>139.4</ele>
      </trkpt>
      <trkpt lat="44.19903" lon="0.70873">
        <ele>138.6</ele>
      </trkpt>
      <trkpt lat="44.19902" lon="0.7083">
        <ele>139.9</ele>
        <time>2024-06-11T11:25:05+02:00</time>
      </trkpt>
      <trkpt lat="44.19901" lon="0.70817">
        <ele>141.3</ele>
      </trkpt>
      <trkpt lat="44.19896" lon="0.70802">
        <ele>142.4</ele>
      </trkpt>
      <trkpt lat="44.19894" lon="0.70793">
        <ele>143.4</ele>
      </trkpt>
      <trkpt lat="44.19892" lon="0.70782">
        <ele>144.8</ele>
      </trkpt>
      <trkpt lat="44.19894" lon="0.70777">
        <ele>146.2</ele>
      </trkpt>
      <trkpt lat="44.19902" lon="0.70773">
        <ele>148.1</ele>
      </trkpt>
      <trkpt lat="44.1991" lon="0.70771">
        <ele>149.5</ele>
      </trkpt>
      <trkpt lat="44.19918" lon="0.70776">
        <ele>150.3</ele>
      </trkpt>
      <trkpt lat="44.19932" lon="0.70792">
        <ele>150.7</ele>
      </trkpt>
      <trkpt lat="44.19953" lon="0.70813">
        <ele>152.4</ele>
      </trkpt>
      <trkpt lat="44.19957" lon="0.70827">
        <ele>152.5</ele>
      </trkpt>
      <trkpt lat="44.19952" lon="0.70862">
        <ele>152.2</ele>
      </trkpt>
      <trkpt lat="44.19944" lon="0.70899">
        <ele>150.9</ele>
      </trkpt>
      <trkpt lat="44.19943" lon="0.70922">
        <ele>149.5</ele>
      </trkpt>
      <trkpt lat="44.19953" lon="0.70929">
        <ele>148.3</ele>
      </trkpt>
      <trkpt lat="44.1998" lon="0.70933">
        <ele>147.4</ele>
      </trkpt>
      <trkpt lat="44.19999" lon="0.70928">
        <ele>148.1</ele>
      </trkpt>
      <trkpt lat="44.2003" lon="0.70926">
        <ele>149.3</ele>
      </trkpt>
      <trkpt lat="44.2005" lon="0.70932">
        <ele>150.9</ele>
      </trkpt>
      <trkpt lat="44.20069" lon="0.70964">
        <ele>150.4</ele>
      </trkpt>
      <trkpt lat="44.20087" lon="0.71003">
        <ele>152.6</ele>
      </trkpt>
      <trkpt lat="44.20099" lon="0.71032">
        <ele>150.6</ele>
      </trkpt>
      <trkpt lat="44.20104" lon="0.71055">
        <ele>150.8</ele>
      </trkpt>
      <trkpt lat="44.20103" lon="0.71077">
        <ele>151.4</ele>
      </trkpt>
      <trkpt lat="44.20087" lon="0.71134">
        <ele>153.1</ele>
      </trkpt>
      <trkpt lat="44.20072" lon="0.71171">
        <ele>152.4</ele>
      </trkpt>
      <trkpt lat="44.20051" lon="0.71214">
        <ele>153.7</ele>
      </trkpt>
      <trkpt lat="44.20029" lon="0.71252">
        <ele>154.2</ele>
      </trkpt>
      <trkpt lat="44.20012" lon="0.7128">
        <ele>153.9</ele>
      </trkpt>
      <trkpt lat="44.20011" lon="0.71306">
        <ele>154.8</ele>
      </trkpt>
      <trkpt lat="44.2001" lon="0.71322">
        <ele>155.1</ele>
      </trkpt>
      <trkpt lat="44.20027" lon="0.71343">
        <ele>156</ele>
      </trkpt>
      <trkpt lat="44.20037" lon="0.71355">
        <ele>155.5</ele>
      </trkpt>
      <trkpt lat="44.20047" lon="0.71361">
        <ele>154.7</ele>
        <time>2024-06-11T11:25:15+02:00</time>
      </trkpt>
      <trkpt lat="44.20059" lon="0.71358">
        <ele>153.9</ele>
      </trkpt>
      <trkpt lat="44.20084" lon="0.71341">
        <ele>153.4</ele>
      </trkpt>
      <trkpt lat="44.20094" lon="0.71331">
        <ele>153.5</ele>
      </trkpt>
      <trkpt lat="44.20107" lon="0.7132">
        <ele>153.7</ele>
      </trkpt>
      <trkpt lat="44.20107" lon="0.71309">
        <ele>154.8</ele>
      </trkpt>
      <trkpt lat="44.20109" lon="0.71286">
        <ele>156.4</ele>
      </trkpt>
      <trkpt lat="44.20109" lon="0.7126">
        <ele>157</ele>
      </trkpt>
      <trkpt lat="44.20107" lon="0.71233">
        <ele>157.5</ele>
        <time>2024-06-11T11:25:30+02:00</time>
      </trkpt>
      <trkpt lat="44.2011" lon="0.71212">
        <ele>157.9</ele>
      </trkpt>
      <trkpt lat="44.20119" lon="0.71207">
        <ele>158.3</ele>
      </trkpt>
      <trkpt lat="44.20128" lon="0.71197">
        <ele>158.6</ele>
      </trkpt>
      <trkpt lat="44.20136" lon="0.7119">
        <ele>159</ele>
      </trkpt>
      <trkpt lat="44.20138" lon="0.71179">
        <ele>159.5</ele>
      </trkpt>
      <trkpt lat="44.20143" lon="0.71157">
        <ele>160</ele>
      </trkpt>
      <trkpt lat="44.20148" lon="0.71143">
        <ele>160.3</ele>
      </trkpt>
      <trkpt lat="44.20154" lon="0.71128">
        <ele>160.4</ele>
        <time>2024-06-11T11:26:00+02:00</time>
      </trkpt>
      <trkpt lat="44.20162" lon="0.71121">
        <ele>160.7</ele>
      </trkpt>
      <trkpt lat="44.2017" lon="0.71122">
        <ele>160.7</ele>
      </trkpt>
      <trkpt lat="44.2018" lon="0.71131">
        <ele>159.5</ele>
      </trkpt>
      <trkpt lat="44.20189" lon="0.71136">
        <ele>158</ele>
      </trkpt>
      <trkpt lat="44.20201" lon="0.71136">
        <ele>157.3</ele>
      </trkpt>
      <trkpt lat="44.20211" lon="0.71128">
        <ele>158</ele>
        <time>2024-06-11T11:26:40+02:00</time>
      </trkpt>
      <trkpt lat="44.20216" lon="0.71107">
        <ele>159.7</ele>
      </trkpt>
      <trkpt lat="44.20222" lon="0.7108">
        <ele>162</ele>
      </trkpt>
      <trkpt lat="44.2023" lon="0.71065">
        <ele>161.9</ele>
      </trkpt>
      <trkpt lat="44.20215" lon="0.71044">
        <ele>162.2</ele>
      </trkpt>
      <trkpt lat="44.20197" lon="0.71029">
        <ele>161.2</ele>
      </trkpt>
      <trkpt lat="44.20176" lon="0.71008">
        <ele>160.6</ele>
        <time>2024-06-11T11:26:50+02:00</time>
      </trkpt>
      <trkpt lat="44.20151" lon="0.70958">
        <ele>159.1</ele>
        <time>2024-06-11T11:27:00+02:00</time>
      </trkpt>
      <trkpt lat="44.20128" lon="0.70916">
        <ele>157.6</ele>
        <time>2024-06-11T11:27:10+02:00</time>
      </trkpt>
      <trkpt lat="44.20104" lon="0.70871">
        <ele>156.5</ele>
        <time>2024-06-11T11:27:25+02:00</time>
      </trkpt>
      <trkpt lat="44.20078" lon="0.70819">
        <ele>155.8</ele>
        <time>2024-06-11T11:27:35+02:00</time>
      </trkpt>
      <trkpt lat="44.20052" lon="0.7078">
        <ele>155</ele>
        <time>2024-06-11T11:27:45+02:00</time>
      </trkpt>
      <trkpt lat="44.20013" lon="0.70716">
        <ele>154.3</ele>
        <time>2024-06-11T11:27:55+02:00</time>
      </trkpt>
      <trkpt lat="44.19984" lon="0.70697">
        <ele>154.6</ele>
      </trkpt>
      <trkpt lat="44.19952" lon="0.70676">
        <ele>154.6</ele>
        <time>2024-06-11T11:28:43+02:00</time>
      </trkpt>
      <trkpt lat="44.19884" lon="0.70644">
        <ele>155.6</ele>
        <time>2024-06-11T11:29:02+02:00</time>
      </trkpt>
      <trkpt lat="44.19826" lon="0.70633">
        <ele>156.7</ele>
      </trkpt>
      <trkpt lat="44.19805" lon="0.7064">
        <ele>156.9</ele>
        <time>2024-06-11T11:29:52+02:00</time>
      </trkpt>
      <trkpt lat="44.19793" lon="0.70634">
        <ele>157.3</ele>
        <time>2024-06-11T11:30:07+02:00</time>
      </trkpt>
      <trkpt lat="44.1979" lon="0.70618">
        <ele>158.1</ele>
        <time>2024-06-11T11:30:17+02:00</time>
      </trkpt>
      <trkpt lat="44.19786" lon="0.70605">
        <ele>158.3</ele>
        <time>2024-06-11T11:30:27+02:00</time>
      </trkpt>
      <trkpt lat="44.19781" lon="0.70591">
        <ele>158.1</ele>
        <time>2024-06-11T11:30:37+02:00</time>
      </trkpt>
      <trkpt lat="44.19776" lon="0.70578">
        <ele>157.9</ele>
        <time>2024-06-11T11:30:47+02:00</time>
      </trkpt>
      <trkpt lat="44.1977" lon="0.70566">
        <ele>157.6</ele>
        <time>2024-06-11T11:30:57+02:00</time>
      </trkpt>
      <trkpt lat="44.19764" lon="0.70553">
        <ele>156.9</ele>
        <time>2024-06-11T11:31:07+02:00</time>
      </trkpt>
      <trkpt lat="44.19757" lon="0.7054">
        <ele>155.8</ele>
        <time>2024-06-11T11:31:17+02:00</time>
      </trkpt>
      <trkpt lat="44.19751" lon="0.70528">
        <ele>155</ele>
        <time>2024-06-11T11:31:27+02:00</time>
      </trkpt>
      <trkpt lat="44.19747" lon="0.70516">
        <ele>154</ele>
        <time>2024-06-11T11:31:37+02:00</time>
      </trkpt>
      <trkpt lat="44.19741" lon="0.70502">
        <ele>152.8</ele>
        <time>2024-06-11T11:31:47+02:00</time>
      </trkpt>
      <trkpt lat="44.19734" lon="0.7049">
        <ele>151.9</ele>
        <time>2024-06-11T11:31:57+02:00</time>
      </trkpt>
      <trkpt lat="44.19727" lon="0.70478">
        <ele>151.2</ele>
        <time>2024-06-11T11:32:07+02:00</time>
      </trkpt>
      <trkpt lat="44.19724" lon="0.70463">
        <ele>150</ele>
        <time>2024-06-11T11:32:17+02:00</time>
      </trkpt>
      <trkpt lat="44.19717" lon="0.70455">
        <ele>148.6</ele>
        <time>2024-06-11T11:32:27+02:00</time>
      </trkpt>
      <trkpt lat="44.19703" lon="0.7046">
        <ele>148</ele>
        <time>2024-06-11T11:32:37+02:00</time>
      </trkpt>
      <trkpt lat="44.19692" lon="0.70461">
        <ele>147.6</ele>
        <time>2024-06-11T11:32:47+02:00</time>
      </trkpt>
      <trkpt lat="44.19681" lon="0.70462">
        <ele>147.3</ele>
        <time>2024-06-11T11:32:57+02:00</time>
      </trkpt>
      <trkpt lat="44.19669" lon="0.70464">
        <ele>147.3</ele>
        <time>2024-06-11T11:33:11+02:00</time>
      </trkpt>
      <trkpt lat="44.19661" lon="0.70462">
        <ele>146.9</ele>
        <time>2024-06-11T11:33:21+02:00</time>
      </trkpt>
      <trkpt lat="44.19651" lon="0.70456">
        <ele>146.1</ele>
        <time>2024-06-11T11:33:31+02:00</time>
      </trkpt>
      <trkpt lat="44.19641" lon="0.70451">
        <ele>145.8</ele>
        <time>2024-06-11T11:33:40+02:00</time>
      </trkpt>
      <trkpt lat="44.1963" lon="0.70442">
        <ele>145.2</ele>
        <time>2024-06-11T11:33:55+02:00</time>
      </trkpt>
      <trkpt lat="44.19619" lon="0.70437">
        <ele>145.3</ele>
        <time>2024-06-11T11:34:05+02:00</time>
      </trkpt>
      <trkpt lat="44.19608" lon="0.70429">
        <ele>144.9</ele>
        <time>2024-06-11T11:34:15+02:00</time>
      </trkpt>
      <trkpt lat="44.19596" lon="0.70422">
        <ele>145.4</ele>
        <time>2024-06-11T11:34:25+02:00</time>
      </trkpt>
      <trkpt lat="44.19584" lon="0.70415">
        <ele>146.8</ele>
        <time>2024-06-11T11:34:35+02:00</time>
      </trkpt>
      <trkpt lat="44.19575" lon="0.70407">
        <ele>146</ele>
        <time>2024-06-11T11:34:45+02:00</time>
      </trkpt>
      <trkpt lat="44.19567" lon="0.70395">
        <ele>145</ele>
        <time>2024-06-11T11:34:55+02:00</time>
      </trkpt>
      <trkpt lat="44.19562" lon="0.70383">
        <ele>144.3</ele>
        <time>2024-06-11T11:35:05+02:00</time>
      </trkpt>
      <trkpt lat="44.19562" lon="0.70365">
        <ele>143.9</ele>
        <time>2024-06-11T11:35:15+02:00</time>
      </trkpt>
      <trkpt lat="44.19562" lon="0.70352">
        <ele>143.6</ele>
        <time>2024-06-11T11:35:25+02:00</time>
      </trkpt>
      <trkpt lat="44.19561" lon="0.70337">
        <ele>143.5</ele>
        <time>2024-06-11T11:35:35+02:00</time>
      </trkpt>
      <trkpt lat="44.19561" lon="0.70322">
        <ele>143.5</ele>
        <time>2024-06-11T11:35:45+02:00</time>
      </trkpt>
      <trkpt lat="44.1956" lon="0.70308">
        <ele>143.7</ele>
        <time>2024-06-11T11:35:55+02:00</time>
      </trkpt>
      <trkpt lat="44.19559" lon="0.70293">
        <ele>143.7</ele>
        <time>2024-06-11T11:36:05+02:00</time>
      </trkpt>
      <trkpt lat="44.19554" lon="0.70282">
        <ele>143.7</ele>
        <time>2024-06-11T11:36:15+02:00</time>
      </trkpt>
      <trkpt lat="44.19546" lon="0.70269">
        <ele>142.8</ele>
        <time>2024-06-11T11:36:25+02:00</time>
      </trkpt>
      <trkpt lat="44.19538" lon="0.70259">
        <ele>142.4</ele>
        <time>2024-06-11T11:36:35+02:00</time>
      </trkpt>
      <trkpt lat="44.1953" lon="0.70249">
        <ele>142.3</ele>
        <time>2024-06-11T11:36:45+02:00</time>
      </trkpt>
      <trkpt lat="44.19517" lon="0.70224">
        <ele>141.3</ele>
        <time>2024-06-11T11:37:20+02:00</time>
      </trkpt>
      <trkpt lat="44.19489" lon="0.70207">
        <ele>140.4</ele>
        <time>2024-06-11T12:32:18+02:00</time>
      </trkpt>
      <trkpt lat="44.19479" lon="0.70203">
        <ele>140.2</ele>
        <time>2024-06-11T12:32:28+02:00</time>
      </trkpt>
      <trkpt lat="44.19469" lon="0.702">
        <ele>139.9</ele>
        <time>2024-06-11T12:32:38+02:00</time>
      </trkpt>
      <trkpt lat="44.1946" lon="0.70198">
        <ele>139.3</ele>
        <time>2024-06-11T12:32:48+02:00</time>
      </trkpt>
      <trkpt lat="44.1945" lon="0.70196">
        <ele>138.5</ele>
        <time>2024-06-11T12:32:58+02:00</time>
      </trkpt>
      <trkpt lat="44.19438" lon="0.70197">
        <ele>136.9</ele>
        <time>2024-06-11T12:33:08+02:00</time>
      </trkpt>
      <trkpt lat="44.19426" lon="0.70194">
        <ele>135.3</ele>
        <time>2024-06-11T12:33:18+02:00</time>
      </trkpt>
      <trkpt lat="44.19414" lon="0.70193">
        <ele>133.7</ele>
        <time>2024-06-11T12:33:28+02:00</time>
      </trkpt>
      <trkpt lat="44.19403" lon="0.70192">
        <ele>133.2</ele>
        <time>2024-06-11T12:33:38+02:00</time>
      </trkpt>
      <trkpt lat="44.19392" lon="0.70188">
        <ele>132.5</ele>
        <time>2024-06-11T12:33:48+02:00</time>
      </trkpt>
      <trkpt lat="44.19381" lon="0.70184">
        <ele>131.9</ele>
        <time>2024-06-11T12:33:58+02:00</time>
      </trkpt>
      <trkpt lat="44.19369" lon="0.70181">
        <ele>131.9</ele>
        <time>2024-06-11T12:34:08+02:00</time>
      </trkpt>
      <trkpt lat="44.19358" lon="0.70179">
        <ele>132.1</ele>
        <time>2024-06-11T12:34:18+02:00</time>
      </trkpt>
      <trkpt lat="44.19347" lon="0.70172">
        <ele>133.1</ele>
        <time>2024-06-11T12:34:28+02:00</time>
      </trkpt>
      <trkpt lat="44.19335" lon="0.70167">
        <ele>134.7</ele>
        <time>2024-06-11T12:34:43+02:00</time>
      </trkpt>
      <trkpt lat="44.19323" lon="0.70163">
        <ele>136.4</ele>
        <time>2024-06-11T12:34:53+02:00</time>
      </trkpt>
      <trkpt lat="44.1931" lon="0.7016">
        <ele>138.7</ele>
        <time>2024-06-11T12:35:03+02:00</time>
      </trkpt>
      <trkpt lat="44.19296" lon="0.7016">
        <ele>140.5</ele>
        <time>2024-06-11T12:35:18+02:00</time>
      </trkpt>
      <trkpt lat="44.19288" lon="0.70155">
        <ele>142.2</ele>
        <time>2024-06-11T12:35:28+02:00</time>
      </trkpt>
      <trkpt lat="44.19281" lon="0.70153">
        <ele>143.1</ele>
        <time>2024-06-11T12:35:38+02:00</time>
      </trkpt>
      <trkpt lat="44.19291" lon="0.70133">
        <ele>145.4</ele>
        <time>2024-06-11T12:35:48+02:00</time>
      </trkpt>
      <trkpt lat="44.19288" lon="0.70126">
        <ele>146.1</ele>
        <time>2024-06-11T12:36:03+02:00</time>
      </trkpt>
      <trkpt lat="44.19278" lon="0.70124">
        <ele>147.1</ele>
        <time>2024-06-11T12:36:18+02:00</time>
      </trkpt>
      <trkpt lat="44.19268" lon="0.7013">
        <ele>147.6</ele>
        <time>2024-06-11T12:36:28+02:00</time>
      </trkpt>
      <trkpt lat="44.19258" lon="0.70134">
        <ele>148.4</ele>
        <time>2024-06-11T12:36:38+02:00</time>
      </trkpt>
      <trkpt lat="44.19248" lon="0.70141">
        <ele>148.9</ele>
        <time>2024-06-11T12:36:47+02:00</time>
      </trkpt>
      <trkpt lat="44.19237" lon="0.70155">
        <ele>148.7</ele>
        <time>2024-06-11T12:36:57+02:00</time>
      </trkpt>
      <trkpt lat="44.1923" lon="0.70166">
        <ele>149</ele>
        <time>2024-06-11T12:37:07+02:00</time>
      </trkpt>
      <trkpt lat="44.1922" lon="0.70177">
        <ele>148.7</ele>
        <time>2024-06-11T12:37:16+02:00</time>
      </trkpt>
      <trkpt lat="44.19211" lon="0.70184">
        <ele>148.8</ele>
        <time>2024-06-11T12:37:26+02:00</time>
      </trkpt>
      <trkpt lat="44.19202" lon="0.70193">
        <ele>149.1</ele>
        <time>2024-06-11T12:37:36+02:00</time>
      </trkpt>
      <trkpt lat="44.1919" lon="0.70207">
        <ele>149.2</ele>
        <time>2024-06-11T12:37:46+02:00</time>
      </trkpt>
      <trkpt lat="44.19182" lon="0.70219">
        <ele>149.2</ele>
        <time>2024-06-11T12:37:56+02:00</time>
      </trkpt>
      <trkpt lat="44.1917" lon="0.70233">
        <ele>149.2</ele>
        <time>2024-06-11T12:38:06+02:00</time>
      </trkpt>
      <trkpt lat="44.19159" lon="0.70244">
        <ele>149.1</ele>
        <time>2024-06-11T12:38:16+02:00</time>
      </trkpt>
      <trkpt lat="44.19147" lon="0.70256">
        <ele>148.8</ele>
        <time>2024-06-11T12:38:26+02:00</time>
      </trkpt>
      <trkpt lat="44.19137" lon="0.70263">
        <ele>149.5</ele>
        <time>2024-06-11T12:38:36+02:00</time>
      </trkpt>
      <trkpt lat="44.19126" lon="0.7026">
        <ele>149.7</ele>
        <time>2024-06-11T12:38:46+02:00</time>
      </trkpt>
      <trkpt lat="44.19112" lon="0.70257">
        <ele>149.8</ele>
        <time>2024-06-11T12:38:56+02:00</time>
      </trkpt>
      <trkpt lat="44.19098" lon="0.70251">
        <ele>149</ele>
        <time>2024-06-11T12:39:06+02:00</time>
      </trkpt>
      <trkpt lat="44.19087" lon="0.70237">
        <ele>148.3</ele>
        <time>2024-06-11T12:39:16+02:00</time>
      </trkpt>
      <trkpt lat="44.19085" lon="0.70218">
        <ele>148.1</ele>
        <time>2024-06-11T12:39:26+02:00</time>
      </trkpt>
      <trkpt lat="44.19084" lon="0.702">
        <ele>148.1</ele>
        <time>2024-06-11T12:39:36+02:00</time>
      </trkpt>
      <trkpt lat="44.19082" lon="0.70179">
        <ele>147.8</ele>
        <time>2024-06-11T12:39:46+02:00</time>
      </trkpt>
      <trkpt lat="44.19083" lon="0.7016">
        <ele>148.8</ele>
        <time>2024-06-11T12:39:56+02:00</time>
      </trkpt>
      <trkpt lat="44.19084" lon="0.70142">
        <ele>149.1</ele>
        <time>2024-06-11T12:40:06+02:00</time>
      </trkpt>
      <trkpt lat="44.19086" lon="0.70123">
        <ele>149.8</ele>
        <time>2024-06-11T12:40:16+02:00</time>
      </trkpt>
      <trkpt lat="44.19087" lon="0.70101">
        <ele>150.3</ele>
        <time>2024-06-11T12:40:26+02:00</time>
      </trkpt>
      <trkpt lat="44.19086" lon="0.70081">
        <ele>150.2</ele>
        <time>2024-06-11T12:40:36+02:00</time>
      </trkpt>
      <trkpt lat="44.19082" lon="0.70064">
        <ele>149.6</ele>
        <time>2024-06-11T12:40:46+02:00</time>
      </trkpt>
      <trkpt lat="44.19079" lon="0.70046">
        <ele>148.9</ele>
        <time>2024-06-11T12:40:56+02:00</time>
      </trkpt>
      <trkpt lat="44.19074" lon="0.70029">
        <ele>147.5</ele>
        <time>2024-06-11T12:41:06+02:00</time>
      </trkpt>
      <trkpt lat="44.1907" lon="0.7001">
        <ele>147.8</ele>
        <time>2024-06-11T12:41:16+02:00</time>
      </trkpt>
      <trkpt lat="44.19068" lon="0.69994">
        <ele>148.5</ele>
        <time>2024-06-11T12:41:26+02:00</time>
      </trkpt>
      <trkpt lat="44.19064" lon="0.69978">
        <ele>148.8</ele>
        <time>2024-06-11T12:41:35+02:00</time>
      </trkpt>
      <trkpt lat="44.19054" lon="0.69968">
        <ele>147.8</ele>
        <time>2024-06-11T12:41:45+02:00</time>
      </trkpt>
      <trkpt lat="44.19043" lon="0.69955">
        <ele>146.3</ele>
        <time>2024-06-11T12:41:55+02:00</time>
      </trkpt>
      <trkpt lat="44.19032" lon="0.69947">
        <ele>146.1</ele>
        <time>2024-06-11T12:42:05+02:00</time>
      </trkpt>
      <trkpt lat="44.1902" lon="0.69941">
        <ele>145.9</ele>
        <time>2024-06-11T12:42:15+02:00</time>
      </trkpt>
      <trkpt lat="44.19007" lon="0.69935">
        <ele>145.7</ele>
        <time>2024-06-11T12:42:25+02:00</time>
      </trkpt>
      <trkpt lat="44.18993" lon="0.69933">
        <ele>146.1</ele>
        <time>2024-06-11T12:42:35+02:00</time>
      </trkpt>
      <trkpt lat="44.1898" lon="0.69932">
        <ele>147</ele>
        <time>2024-06-11T12:42:45+02:00</time>
      </trkpt>
      <trkpt lat="44.18971" lon="0.69934">
        <ele>147.2</ele>
        <time>2024-06-11T12:43:00+02:00</time>
      </trkpt>
      <trkpt lat="44.18963" lon="0.69941">
        <ele>146.9</ele>
        <time>2024-06-11T12:46:55+02:00</time>
      </trkpt>
      <trkpt lat="44.18952" lon="0.69949">
        <ele>146.6</ele>
        <time>2024-06-11T12:47:25+02:00</time>
      </trkpt>
      <trkpt lat="44.1894" lon="0.69961">
        <ele>144.4</ele>
        <time>2024-06-11T12:47:40+02:00</time>
      </trkpt>
      <trkpt lat="44.1893" lon="0.69972">
        <ele>141.9</ele>
        <time>2024-06-11T12:47:50+02:00</time>
      </trkpt>
      <trkpt lat="44.18921" lon="0.69979">
        <ele>139.6</ele>
        <time>2024-06-11T12:48:00+02:00</time>
      </trkpt>
      <trkpt lat="44.18912" lon="0.69992">
        <ele>136.6</ele>
        <time>2024-06-11T12:48:10+02:00</time>
      </trkpt>
      <trkpt lat="44.18901" lon="0.69992">
        <ele>133.4</ele>
        <time>2024-06-11T12:48:25+02:00</time>
      </trkpt>
      <trkpt lat="44.18888" lon="0.69987">
        <ele>129.4</ele>
        <time>2024-06-11T12:48:40+02:00</time>
      </trkpt>
      <trkpt lat="44.18876" lon="0.6998">
        <ele>124.8</ele>
        <time>2024-06-11T12:48:55+02:00</time>
      </trkpt>
      <trkpt lat="44.18868" lon="0.69972">
        <ele>121.4</ele>
        <time>2024-06-11T12:49:05+02:00</time>
      </trkpt>
      <trkpt lat="44.18858" lon="0.69964">
        <ele>117.7</ele>
        <time>2024-06-11T12:49:15+02:00</time>
      </trkpt>
      <trkpt lat="44.18849" lon="0.69957">
        <ele>114.4</ele>
        <time>2024-06-11T12:49:25+02:00</time>
      </trkpt>
      <trkpt lat="44.18839" lon="0.6997">
        <ele>111.5</ele>
        <time>2024-06-11T12:49:40+02:00</time>
      </trkpt>
      <trkpt lat="44.18829" lon="0.69976">
        <ele>108.5</ele>
        <time>2024-06-11T12:49:55+02:00</time>
      </trkpt>
      <trkpt lat="44.18818" lon="0.69975">
        <ele>105</ele>
        <time>2024-06-11T12:50:05+02:00</time>
      </trkpt>
      <trkpt lat="44.18806" lon="0.69976">
        <ele>101.4</ele>
        <time>2024-06-11T12:50:15+02:00</time>
      </trkpt>
      <trkpt lat="44.18794" lon="0.69976">
        <ele>97.8</ele>
        <time>2024-06-11T12:50:30+02:00</time>
      </trkpt>
      <trkpt lat="44.18784" lon="0.69974">
        <ele>94.8</ele>
        <time>2024-06-11T12:50:40+02:00</time>
      </trkpt>
      <trkpt lat="44.18773" lon="0.69975">
        <ele>92</ele>
        <time>2024-06-11T12:50:49+02:00</time>
      </trkpt>
      <trkpt lat="44.18765" lon="0.69979">
        <ele>89.9</ele>
        <time>2024-06-11T12:50:59+02:00</time>
      </trkpt>
      <trkpt lat="44.18753" lon="0.69981">
        <ele>87</ele>
        <time>2024-06-11T12:51:08+02:00</time>
      </trkpt>
      <trkpt lat="44.1874" lon="0.69983">
        <ele>84.5</ele>
        <time>2024-06-11T12:51:18+02:00</time>
      </trkpt>
      <trkpt lat="44.18726" lon="0.69982">
        <ele>82.1</ele>
        <time>2024-06-11T12:51:28+02:00</time>
      </trkpt>
      <trkpt lat="44.18714" lon="0.6998">
        <ele>80</ele>
        <time>2024-06-11T12:51:38+02:00</time>
      </trkpt>
      <trkpt lat="44.18701" lon="0.69983">
        <ele>78</ele>
        <time>2024-06-11T12:51:48+02:00</time>
      </trkpt>
      <trkpt lat="44.18688" lon="0.69985">
        <ele>75.9</ele>
        <time>2024-06-11T12:51:58+02:00</time>
      </trkpt>
      <trkpt lat="44.18674" lon="0.69988">
        <ele>73.2</ele>
        <time>2024-06-11T12:52:08+02:00</time>
      </trkpt>
      <trkpt lat="44.1866" lon="0.69992">
        <ele>71.3</ele>
        <time>2024-06-11T12:52:18+02:00</time>
      </trkpt>
      <trkpt lat="44.18647" lon="0.69992">
        <ele>69.8</ele>
        <time>2024-06-11T12:52:28+02:00</time>
      </trkpt>
      <trkpt lat="44.18637" lon="0.70002">
        <ele>68.8</ele>
        <time>2024-06-11T12:52:38+02:00</time>
      </trkpt>
      <trkpt lat="44.18631" lon="0.70017">
        <ele>68.2</ele>
        <time>2024-06-11T12:52:48+02:00</time>
      </trkpt>
      <trkpt lat="44.18627" lon="0.70034">
        <ele>67.7</ele>
        <time>2024-06-11T12:52:58+02:00</time>
      </trkpt>
      <trkpt lat="44.18613" lon="0.7003">
        <ele>66.1</ele>
        <time>2024-06-11T12:53:18+02:00</time>
      </trkpt>
      <trkpt lat="44.18601" lon="0.70025">
        <ele>65.3</ele>
        <time>2024-06-11T12:53:28+02:00</time>
      </trkpt>
      <trkpt lat="44.18588" lon="0.70023">
        <ele>64.5</ele>
        <time>2024-06-11T12:53:38+02:00</time>
      </trkpt>
      <trkpt lat="44.18575" lon="0.70021">
        <ele>63.9</ele>
        <time>2024-06-11T12:53:48+02:00</time>
      </trkpt>
      <trkpt lat="44.18564" lon="0.7002">
        <ele>63.6</ele>
        <time>2024-06-11T12:53:58+02:00</time>
      </trkpt>
      <trkpt lat="44.18552" lon="0.70019">
        <ele>63.3</ele>
        <time>2024-06-11T12:54:08+02:00</time>
      </trkpt>
      <trkpt lat="44.18542" lon="0.70017">
        <ele>63.2</ele>
        <time>2024-06-11T12:54:18+02:00</time>
      </trkpt>
      <trkpt lat="44.18535" lon="0.70007">
        <ele>63.2</ele>
        <time>2024-06-11T12:54:58+02:00</time>
      </trkpt>
      <trkpt lat="44.18526" lon="0.70005">
        <ele>63</ele>
        <time>2024-06-11T12:57:48+02:00</time>
      </trkpt>
      <trkpt lat="44.18518" lon="0.70014">
        <ele>62.8</ele>
        <time>2024-06-11T12:57:58+02:00</time>
      </trkpt>
      <trkpt lat="44.18508" lon="0.70023">
        <ele>62.4</ele>
        <time>2024-06-11T12:58:08+02:00</time>
      </trkpt>
      <trkpt lat="44.185" lon="0.70029">
        <ele>62</ele>
        <time>2024-06-11T12:58:18+02:00</time>
      </trkpt>
      <trkpt lat="44.18493" lon="0.7004">
        <ele>61.4</ele>
        <time>2024-06-11T12:58:28+02:00</time>
      </trkpt>
      <trkpt lat="44.18473" lon="0.70065">
        <ele>61</ele>
        <time>2024-06-11T12:58:48+02:00</time>
      </trkpt>
      <trkpt lat="44.18463" lon="0.70075">
        <ele>60.7</ele>
        <time>2024-06-11T12:58:58+02:00</time>
      </trkpt>
      <trkpt lat="44.18452" lon="0.70084">
        <ele>60.3</ele>
        <time>2024-06-11T12:59:08+02:00</time>
      </trkpt>
      <trkpt lat="44.18442" lon="0.70092">
        <ele>60</ele>
        <time>2024-06-11T12:59:18+02:00</time>
      </trkpt>
      <trkpt lat="44.18433" lon="0.70101">
        <ele>60</ele>
        <time>2024-06-11T12:59:28+02:00</time>
      </trkpt>
      <trkpt lat="44.18413" lon="0.70125">
        <ele>59.9</ele>
        <time>2024-06-11T12:59:53+02:00</time>
      </trkpt>
      <trkpt lat="44.18393" lon="0.70152">
        <ele>59.6</ele>
        <time>2024-06-11T13:00:13+02:00</time>
      </trkpt>
      <trkpt lat="44.18384" lon="0.70167">
        <ele>60</ele>
        <time>2024-06-11T13:00:23+02:00</time>
      </trkpt>
      <trkpt lat="44.18375" lon="0.70174">
        <ele>60</ele>
        <time>2024-06-11T13:00:33+02:00</time>
      </trkpt>
      <trkpt lat="44.18367" lon="0.70183">
        <ele>60</ele>
        <time>2024-06-11T13:00:42+02:00</time>
      </trkpt>
      <trkpt lat="44.18363" lon="0.70195">
        <ele>60</ele>
        <time>2024-06-11T13:00:53+02:00</time>
      </trkpt>
      <trkpt lat="44.18354" lon="0.70204">
        <ele>60</ele>
        <time>2024-06-11T13:01:03+02:00</time>
      </trkpt>
      <trkpt lat="44.18343" lon="0.7022">
        <ele>60</ele>
        <time>2024-06-11T13:01:13+02:00</time>
      </trkpt>
      <trkpt lat="44.18334" lon="0.70228">
        <ele>60</ele>
        <time>2024-06-11T13:01:23+02:00</time>
      </trkpt>
      <trkpt lat="44.18321" lon="0.70232">
        <ele>60</ele>
        <time>2024-06-11T13:01:33+02:00</time>
      </trkpt>
      <trkpt lat="44.18308" lon="0.7023">
        <ele>60</ele>
        <time>2024-06-11T13:01:43+02:00</time>
      </trkpt>
      <trkpt lat="44.18297" lon="0.70221">
        <ele>60.6</ele>
        <time>2024-06-11T13:01:53+02:00</time>
      </trkpt>
      <trkpt lat="44.18293" lon="0.7021">
        <ele>60.9</ele>
        <time>2024-06-11T13:02:03+02:00</time>
      </trkpt>
      <trkpt lat="44.18288" lon="0.70198">
        <ele>61.4</ele>
        <time>2024-06-11T13:02:13+02:00</time>
      </trkpt>
      <trkpt lat="44.18284" lon="0.70181">
        <ele>61.6</ele>
        <time>2024-06-11T13:02:23+02:00</time>
      </trkpt>
      <trkpt lat="44.18286" lon="0.7016">
        <ele>60.6</ele>
        <time>2024-06-11T13:02:33+02:00</time>
      </trkpt>
      <trkpt lat="44.18278" lon="0.7013">
        <ele>59.7</ele>
        <time>2024-06-11T13:02:53+02:00</time>
      </trkpt>
      <trkpt lat="44.18269" lon="0.70121">
        <ele>59.3</ele>
        <time>2024-06-11T13:03:03+02:00</time>
      </trkpt>
      <trkpt lat="44.18258" lon="0.70119">
        <ele>59.1</ele>
        <time>2024-06-11T13:03:13+02:00</time>
      </trkpt>
      <trkpt lat="44.18245" lon="0.70117">
        <ele>59.1</ele>
        <time>2024-06-11T13:03:23+02:00</time>
      </trkpt>
      <trkpt lat="44.18234" lon="0.70113">
        <ele>59.3</ele>
        <time>2024-06-11T13:03:33+02:00</time>
      </trkpt>
      <trkpt lat="44.18224" lon="0.70111">
        <ele>59.8</ele>
        <time>2024-06-11T13:03:43+02:00</time>
      </trkpt>
      <trkpt lat="44.18215" lon="0.70107">
        <ele>59.7</ele>
        <time>2024-06-11T13:03:53+02:00</time>
      </trkpt>
      <trkpt lat="44.18204" lon="0.70107">
        <ele>59.7</ele>
        <time>2024-06-11T13:04:08+02:00</time>
      </trkpt>
      <trkpt lat="44.18191" lon="0.70105">
        <ele>59.5</ele>
        <time>2024-06-11T13:04:18+02:00</time>
      </trkpt>
      <trkpt lat="44.18169" lon="0.70105">
        <ele>58.8</ele>
        <time>2024-06-11T13:04:38+02:00</time>
      </trkpt>
      <trkpt lat="44.18157" lon="0.70104">
        <ele>58.7</ele>
        <time>2024-06-11T13:04:48+02:00</time>
      </trkpt>
      <trkpt lat="44.18146" lon="0.70103">
        <ele>58.7</ele>
        <time>2024-06-11T13:04:57+02:00</time>
      </trkpt>
      <trkpt lat="44.18135" lon="0.70103">
        <ele>58.8</ele>
        <time>2024-06-11T13:05:07+02:00</time>
      </trkpt>
      <trkpt lat="44.18124" lon="0.701">
        <ele>59.1</ele>
        <time>2024-06-11T13:05:17+02:00</time>
      </trkpt>
      <trkpt lat="44.18114" lon="0.70094">
        <ele>59.3</ele>
        <time>2024-06-11T13:05:27+02:00</time>
      </trkpt>
      <trkpt lat="44.18104" lon="0.70089">
        <ele>59</ele>
        <time>2024-06-11T13:05:37+02:00</time>
      </trkpt>
      <trkpt lat="44.18093" lon="0.70086">
        <ele>58.4</ele>
        <time>2024-06-11T13:05:47+02:00</time>
      </trkpt>
      <trkpt lat="44.18082" lon="0.70079">
        <ele>58</ele>
        <time>2024-06-11T13:05:57+02:00</time>
      </trkpt>
      <trkpt lat="44.18071" lon="0.70076">
        <ele>58</ele>
        <time>2024-06-11T13:06:07+02:00</time>
      </trkpt>
      <trkpt lat="44.18059" lon="0.70073">
        <ele>58</ele>
        <time>2024-06-11T13:06:17+02:00</time>
      </trkpt>
      <trkpt lat="44.18048" lon="0.70069">
        <ele>57.8</ele>
        <time>2024-06-11T13:06:27+02:00</time>
      </trkpt>
      <trkpt lat="44.18037" lon="0.70061">
        <ele>57.5</ele>
        <time>2024-06-11T13:06:37+02:00</time>
      </trkpt>
      <trkpt lat="44.18027" lon="0.70057">
        <ele>57.1</ele>
        <time>2024-06-11T13:06:47+02:00</time>
      </trkpt>
      <trkpt lat="44.18014" lon="0.70055">
        <ele>57.5</ele>
        <time>2024-06-11T13:06:57+02:00</time>
      </trkpt>
      <trkpt lat="44.18005" lon="0.70053">
        <ele>57.8</ele>
        <time>2024-06-11T13:07:07+02:00</time>
      </trkpt>
      <trkpt lat="44.17992" lon="0.70051">
        <ele>58.2</ele>
        <time>2024-06-11T13:07:17+02:00</time>
      </trkpt>
      <trkpt lat="44.1798" lon="0.7005">
        <ele>58.4</ele>
        <time>2024-06-11T13:07:27+02:00</time>
      </trkpt>
      <trkpt lat="44.17969" lon="0.70047">
        <ele>58.4</ele>
        <time>2024-06-11T13:07:37+02:00</time>
      </trkpt>
      <trkpt lat="44.17958" lon="0.70044">
        <ele>58.4</ele>
        <time>2024-06-11T13:07:47+02:00</time>
      </trkpt>
      <trkpt lat="44.17949" lon="0.7004">
        <ele>58.3</ele>
        <time>2024-06-11T13:07:57+02:00</time>
      </trkpt>
      <trkpt lat="44.1794" lon="0.70045">
        <ele>58.6</ele>
        <time>2024-06-11T13:08:07+02:00</time>
      </trkpt>
      <trkpt lat="44.17929" lon="0.70049">
        <ele>58.6</ele>
        <time>2024-06-11T13:08:17+02:00</time>
      </trkpt>
      <trkpt lat="44.17918" lon="0.70051">
        <ele>58.7</ele>
        <time>2024-06-11T13:08:27+02:00</time>
      </trkpt>
      <trkpt lat="44.17907" lon="0.70053">
        <ele>58.5</ele>
        <time>2024-06-11T13:08:37+02:00</time>
      </trkpt>
      <trkpt lat="44.17898" lon="0.70057">
        <ele>58.4</ele>
        <time>2024-06-11T13:08:47+02:00</time>
      </trkpt>
      <trkpt lat="44.17888" lon="0.70063">
        <ele>58.5</ele>
        <time>2024-06-11T13:08:57+02:00</time>
      </trkpt>
      <trkpt lat="44.17878" lon="0.70071">
        <ele>58.7</ele>
        <time>2024-06-11T13:09:12+02:00</time>
      </trkpt>
      <trkpt lat="44.17866" lon="0.70077">
        <ele>58.7</ele>
        <time>2024-06-11T13:09:22+02:00</time>
      </trkpt>
      <trkpt lat="44.17856" lon="0.7007">
        <ele>58</ele>
        <time>2024-06-11T13:09:32+02:00</time>
      </trkpt>
      <trkpt lat="44.17846" lon="0.70066">
        <ele>57.4</ele>
        <time>2024-06-11T13:09:42+02:00</time>
      </trkpt>
      <trkpt lat="44.17835" lon="0.70063">
        <ele>56.8</ele>
        <time>2024-06-11T13:09:51+02:00</time>
      </trkpt>
      <trkpt lat="44.17825" lon="0.70065">
        <ele>57.2</ele>
        <time>2024-06-11T13:10:01+02:00</time>
      </trkpt>
      <trkpt lat="44.17814" lon="0.70058">
        <ele>56.9</ele>
        <time>2024-06-11T13:10:11+02:00</time>
      </trkpt>
      <trkpt lat="44.17803" lon="0.70056">
        <ele>57.1</ele>
        <time>2024-06-11T13:10:21+02:00</time>
      </trkpt>
      <trkpt lat="44.17792" lon="0.70053">
        <ele>57.4</ele>
        <time>2024-06-11T13:10:31+02:00</time>
      </trkpt>
      <trkpt lat="44.17781" lon="0.70053">
        <ele>57.8</ele>
        <time>2024-06-11T13:10:41+02:00</time>
      </trkpt>
      <trkpt lat="44.17772" lon="0.7006">
        <ele>57.8</ele>
        <time>2024-06-11T13:10:51+02:00</time>
      </trkpt>
      <trkpt lat="44.17763" lon="0.70067">
        <ele>57.7</ele>
        <time>2024-06-11T13:11:01+02:00</time>
      </trkpt>
      <trkpt lat="44.17752" lon="0.7007">
        <ele>57.6</ele>
        <time>2024-06-11T13:11:11+02:00</time>
      </trkpt>
      <trkpt lat="44.1774" lon="0.70072">
        <ele>57.4</ele>
        <time>2024-06-11T13:11:21+02:00</time>
      </trkpt>
      <trkpt lat="44.17728" lon="0.7007">
        <ele>57.1</ele>
        <time>2024-06-11T13:11:31+02:00</time>
      </trkpt>
      <trkpt lat="44.17718" lon="0.7007">
        <ele>57</ele>
        <time>2024-06-11T13:11:41+02:00</time>
      </trkpt>
      <trkpt lat="44.17707" lon="0.70065">
        <ele>57</ele>
        <time>2024-06-11T13:11:51+02:00</time>
      </trkpt>
      <trkpt lat="44.17695" lon="0.70061">
        <ele>57</ele>
        <time>2024-06-11T13:12:01+02:00</time>
      </trkpt>
      <trkpt lat="44.17684" lon="0.70057">
        <ele>57</ele>
        <time>2024-06-11T13:12:11+02:00</time>
      </trkpt>
      <trkpt lat="44.17675" lon="0.70051">
        <ele>56.9</ele>
        <time>2024-06-11T13:12:21+02:00</time>
      </trkpt>
      <trkpt lat="44.17665" lon="0.70045">
        <ele>56.9</ele>
        <time>2024-06-11T13:12:31+02:00</time>
      </trkpt>
      <trkpt lat="44.17654" lon="0.70037">
        <ele>56.3</ele>
        <time>2024-06-11T13:12:41+02:00</time>
      </trkpt>
      <trkpt lat="44.17643" lon="0.7003">
        <ele>55.4</ele>
        <time>2024-06-11T13:12:51+02:00</time>
      </trkpt>
      <trkpt lat="44.17632" lon="0.70031">
        <ele>55.3</ele>
        <time>2024-06-11T13:13:01+02:00</time>
      </trkpt>
      <trkpt lat="44.17622" lon="0.70036">
        <ele>55.6</ele>
        <time>2024-06-11T13:13:11+02:00</time>
      </trkpt>
      <trkpt lat="44.17613" lon="0.70048">
        <ele>55.3</ele>
        <time>2024-06-11T13:13:21+02:00</time>
      </trkpt>
      <trkpt lat="44.17606" lon="0.70063">
        <ele>54.8</ele>
        <time>2024-06-11T13:13:31+02:00</time>
      </trkpt>
      <trkpt lat="44.17595" lon="0.70073">
        <ele>54.4</ele>
        <time>2024-06-11T13:13:41+02:00</time>
      </trkpt>
      <trkpt lat="44.17584" lon="0.7008">
        <ele>54</ele>
        <time>2024-06-11T13:13:51+02:00</time>
      </trkpt>
      <trkpt lat="44.17572" lon="0.70084">
        <ele>54.4</ele>
        <time>2024-06-11T13:14:01+02:00</time>
      </trkpt>
      <trkpt lat="44.1757" lon="0.70071">
        <ele>54.3</ele>
        <time>2024-06-11T13:15:21+02:00</time>
      </trkpt>
      <trkpt lat="44.17576" lon="0.7006">
        <ele>54</ele>
        <time>2024-06-11T13:18:41+02:00</time>
      </trkpt>
      <trkpt lat="44.17581" lon="0.70042">
        <ele>54.4</ele>
        <time>2024-06-11T13:18:51+02:00</time>
      </trkpt>
      <trkpt lat="44.17583" lon="0.70024">
        <ele>54.8</ele>
        <time>2024-06-11T13:19:01+02:00</time>
      </trkpt>
      <trkpt lat="44.17587" lon="0.70007">
        <ele>54.3</ele>
        <time>2024-06-11T13:19:11+02:00</time>
      </trkpt>
      <trkpt lat="44.17588" lon="0.6999">
        <ele>54.5</ele>
        <time>2024-06-11T13:19:21+02:00</time>
      </trkpt>
      <trkpt lat="44.17592" lon="0.69971">
        <ele>55</ele>
        <time>2024-06-11T13:19:31+02:00</time>
      </trkpt>
      <trkpt lat="44.17594" lon="0.69954">
        <ele>55.3</ele>
        <time>2024-06-11T13:19:40+02:00</time>
      </trkpt>
      <trkpt lat="44.17596" lon="0.69939">
        <ele>55.7</ele>
        <time>2024-06-11T13:19:50+02:00</time>
      </trkpt>
      <trkpt lat="44.17596" lon="0.69922">
        <ele>56.3</ele>
        <time>2024-06-11T13:20:00+02:00</time>
      </trkpt>
      <trkpt lat="44.17589" lon="0.69905">
        <ele>57</ele>
        <time>2024-06-11T13:20:10+02:00</time>
      </trkpt>
      <trkpt lat="44.17582" lon="0.6989">
        <ele>57.9</ele>
        <time>2024-06-11T13:20:20+02:00</time>
      </trkpt>
      <trkpt lat="44.17579" lon="0.69874">
        <ele>57.6</ele>
        <time>2024-06-11T13:20:30+02:00</time>
      </trkpt>
      <trkpt lat="44.17578" lon="0.69855">
        <ele>57.3</ele>
        <time>2024-06-11T13:20:40+02:00</time>
      </trkpt>
      <trkpt lat="44.17577" lon="0.69837">
        <ele>56.6</ele>
        <time>2024-06-11T13:20:50+02:00</time>
      </trkpt>
      <trkpt lat="44.17575" lon="0.6982">
        <ele>56</ele>
        <time>2024-06-11T13:21:00+02:00</time>
      </trkpt>
      <trkpt lat="44.17576" lon="0.69804">
        <ele>55.7</ele>
        <time>2024-06-11T13:21:10+02:00</time>
      </trkpt>
      <trkpt lat="44.17576" lon="0.69787">
        <ele>55.3</ele>
        <time>2024-06-11T13:21:20+02:00</time>
      </trkpt>
      <trkpt lat="44.17575" lon="0.69769">
        <ele>54.7</ele>
        <time>2024-06-11T13:21:30+02:00</time>
      </trkpt>
      <trkpt lat="44.17576" lon="0.69752">
        <ele>54.1</ele>
        <time>2024-06-11T13:21:40+02:00</time>
      </trkpt>
      <trkpt lat="44.17578" lon="0.69734">
        <ele>54</ele>
        <time>2024-06-11T13:21:50+02:00</time>
      </trkpt>
      <trkpt lat="44.17579" lon="0.69716">
        <ele>54.2</ele>
        <time>2024-06-11T13:22:00+02:00</time>
      </trkpt>
      <trkpt lat="44.17577" lon="0.69696">
        <ele>54.7</ele>
        <time>2024-06-11T13:22:10+02:00</time>
      </trkpt>
      <trkpt lat="44.17574" lon="0.69676">
        <ele>54.7</ele>
        <time>2024-06-11T13:22:20+02:00</time>
      </trkpt>
      <trkpt lat="44.17574" lon="0.69659">
        <ele>54.7</ele>
        <time>2024-06-11T13:22:30+02:00</time>
      </trkpt>
      <trkpt lat="44.1757" lon="0.69642">
        <ele>54.5</ele>
        <time>2024-06-11T13:22:40+02:00</time>
      </trkpt>
      <trkpt lat="44.17566" lon="0.69624">
        <ele>54.9</ele>
        <time>2024-06-11T13:22:50+02:00</time>
      </trkpt>
      <trkpt lat="44.17561" lon="0.69605">
        <ele>55.4</ele>
        <time>2024-06-11T13:23:00+02:00</time>
      </trkpt>
      <trkpt lat="44.17557" lon="0.69586">
        <ele>55.9</ele>
        <time>2024-06-11T13:23:10+02:00</time>
      </trkpt>
      <trkpt lat="44.17553" lon="0.69569">
        <ele>56.3</ele>
        <time>2024-06-11T13:23:20+02:00</time>
      </trkpt>
      <trkpt lat="44.17551" lon="0.69551">
        <ele>56.7</ele>
        <time>2024-06-11T13:23:30+02:00</time>
      </trkpt>
      <trkpt lat="44.17543" lon="0.69538">
        <ele>56.7</ele>
        <time>2024-06-11T13:23:39+02:00</time>
      </trkpt>
      <trkpt lat="44.17542" lon="0.69523">
        <ele>56.9</ele>
        <time>2024-06-11T13:23:49+02:00</time>
      </trkpt>
      <trkpt lat="44.1754" lon="0.69505">
        <ele>56.5</ele>
        <time>2024-06-11T13:23:59+02:00</time>
      </trkpt>
      <trkpt lat="44.17547" lon="0.69496">
        <ele>56.7</ele>
        <time>2024-06-11T13:24:09+02:00</time>
      </trkpt>
      <trkpt lat="44.17561" lon="0.69486">
        <ele>57</ele>
        <time>2024-06-11T13:24:24+02:00</time>
      </trkpt>
      <trkpt lat="44.17626" lon="0.69451">
        <ele>57</ele>
        <time>2024-06-11T13:24:34+02:00</time>
      </trkpt>
    </trkseg>
  </trk>
</gpx>